<?xml version="1.0" encoding="UTF-8" standalone="no" ?>
<gpx xmlns="http://www.topografix.com/GPX/1/1" xmlns:xsi="http://www.w3.org/2001/XMLSchema-instance" xsi:schemaLocation="http://www.topografix.com/GPX/1/1 http://www.topografix.com/GPX/1/1/gpx.xsd" version="1.1" creator="VisuGPX - https://www.visugpx.com">
  <metadata>
    <name>2020-02-03-46-trespoux</name>
    <desc><![CDATA[Randonnée de 11,8km pour prés de 400m de dénivelé positif. une partie sur route et de jolie chemins et sentiers en plein bois, gariotte et source dans le décor. 
]]></desc>
  </metadata>
  <trk>
    <name><![CDATA[Trespoux-Rassiels Randonnée 3 févr. 2020 à 2:01 PM]]></name>
    <trkseg>
      <trkpt lat="44.41508" lon="1.37092">
        <ele>45.91634</ele>
        <time>2020-02-03T13:01:27Z</time>
      </trkpt>
      <trkpt lat="44.41508" lon="1.37092">
        <ele>45.91634</ele>
        <time>2020-02-03T13:01:36Z</time>
      </trkpt>
      <trkpt lat="44.4147" lon="1.37091">
        <ele>236.21634666667</ele>
        <time>2020-02-03T13:01:41Z</time>
      </trkpt>
      <trkpt lat="44.41464" lon="1.37083">
        <ele>264.6167</ele>
        <time>2020-02-03T13:01:58Z</time>
      </trkpt>
      <trkpt lat="44.41462" lon="1.3707">
        <ele>286.31718666667</ele>
        <time>2020-02-03T13:02:31Z</time>
      </trkpt>
      <trkpt lat="44.41467" lon="1.37062">
        <ele>286.11750666667</ele>
        <time>2020-02-03T13:02:36Z</time>
      </trkpt>
      <trkpt lat="44.41473" lon="1.37054">
        <ele>284.01782666667</ele>
        <time>2020-02-03T13:02:41Z</time>
      </trkpt>
      <trkpt lat="44.41478" lon="1.37045">
        <ele>283.01820666667</ele>
        <time>2020-02-03T13:02:47Z</time>
      </trkpt>
      <trkpt lat="44.41481" lon="1.37034">
        <ele>281.01863333333</ele>
        <time>2020-02-03T13:02:54Z</time>
      </trkpt>
      <trkpt lat="44.41487" lon="1.37028">
        <ele>280.61889333333</ele>
        <time>2020-02-03T13:03:02Z</time>
      </trkpt>
      <trkpt lat="44.41496" lon="1.37029">
        <ele>280.81885333333</ele>
        <time>2020-02-03T13:03:09Z</time>
      </trkpt>
      <trkpt lat="44.41503" lon="1.37036">
        <ele>281.21857333333</ele>
        <time>2020-02-03T13:03:19Z</time>
      </trkpt>
      <trkpt lat="44.4151" lon="1.37042">
        <ele>281.91831333333</ele>
        <time>2020-02-03T13:03:29Z</time>
      </trkpt>
      <trkpt lat="44.41518" lon="1.37049">
        <ele>282.81804666667</ele>
        <time>2020-02-03T13:03:39Z</time>
      </trkpt>
      <trkpt lat="44.41526" lon="1.37054">
        <ele>283.31783333333</ele>
        <time>2020-02-03T13:03:47Z</time>
      </trkpt>
      <trkpt lat="44.41533" lon="1.37061">
        <ele>283.41757333333</ele>
        <time>2020-02-03T13:03:55Z</time>
      </trkpt>
      <trkpt lat="44.41539" lon="1.37069">
        <ele>284.11723333333</ele>
        <time>2020-02-03T13:04:02Z</time>
      </trkpt>
      <trkpt lat="44.41544" lon="1.37078">
        <ele>284.01689333333</ele>
        <time>2020-02-03T13:04:09Z</time>
      </trkpt>
      <trkpt lat="44.4155" lon="1.37086">
        <ele>283.71655333333</ele>
        <time>2020-02-03T13:04:15Z</time>
      </trkpt>
      <trkpt lat="44.41558" lon="1.37093">
        <ele>283.71629333333</ele>
        <time>2020-02-03T13:04:26Z</time>
      </trkpt>
      <trkpt lat="44.41564" lon="1.371">
        <ele>283.41598666667</ele>
        <time>2020-02-03T13:04:33Z</time>
      </trkpt>
      <trkpt lat="44.4157" lon="1.37107">
        <ele>282.91571333333</ele>
        <time>2020-02-03T13:04:40Z</time>
      </trkpt>
      <trkpt lat="44.41576" lon="1.37116">
        <ele>282.21538</ele>
        <time>2020-02-03T13:04:47Z</time>
      </trkpt>
      <trkpt lat="44.41582" lon="1.37124">
        <ele>282.21504666667</ele>
        <time>2020-02-03T13:04:54Z</time>
      </trkpt>
      <trkpt lat="44.41589" lon="1.3713">
        <ele>282.2148</ele>
        <time>2020-02-03T13:05:02Z</time>
      </trkpt>
      <trkpt lat="44.41594" lon="1.37137">
        <ele>282.51452</ele>
        <time>2020-02-03T13:05:09Z</time>
      </trkpt>
      <trkpt lat="44.416" lon="1.37145">
        <ele>282.61419333333</ele>
        <time>2020-02-03T13:05:16Z</time>
      </trkpt>
      <trkpt lat="44.41605" lon="1.37154">
        <ele>281.71382666667</ele>
        <time>2020-02-03T13:05:25Z</time>
      </trkpt>
      <trkpt lat="44.41613" lon="1.37157">
        <ele>281.41374</ele>
        <time>2020-02-03T13:05:34Z</time>
      </trkpt>
      <trkpt lat="44.41622" lon="1.37157">
        <ele>281.21371333333</ele>
        <time>2020-02-03T13:05:44Z</time>
      </trkpt>
      <trkpt lat="44.41625" lon="1.37168">
        <ele>280.61328666667</ele>
        <time>2020-02-03T13:05:52Z</time>
      </trkpt>
      <trkpt lat="44.41621" lon="1.37179">
        <ele>280.01285333333</ele>
        <time>2020-02-03T13:05:59Z</time>
      </trkpt>
      <trkpt lat="44.41617" lon="1.37188">
        <ele>279.71248666667</ele>
        <time>2020-02-03T13:06:05Z</time>
      </trkpt>
      <trkpt lat="44.41613" lon="1.37198">
        <ele>279.61208666667</ele>
        <time>2020-02-03T13:06:12Z</time>
      </trkpt>
      <trkpt lat="44.41609" lon="1.37208">
        <ele>279.61166666667</ele>
        <time>2020-02-03T13:06:19Z</time>
      </trkpt>
      <trkpt lat="44.41604" lon="1.37219">
        <ele>279.11126</ele>
        <time>2020-02-03T13:06:26Z</time>
      </trkpt>
      <trkpt lat="44.41599" lon="1.3723">
        <ele>278.71082</ele>
        <time>2020-02-03T13:06:33Z</time>
      </trkpt>
      <trkpt lat="44.41595" lon="1.3724">
        <ele>278.31038666667</ele>
        <time>2020-02-03T13:06:40Z</time>
      </trkpt>
      <trkpt lat="44.4159" lon="1.37249">
        <ele>277.81004</ele>
        <time>2020-02-03T13:06:46Z</time>
      </trkpt>
      <trkpt lat="44.41586" lon="1.37259">
        <ele>277.20964666667</ele>
        <time>2020-02-03T13:06:52Z</time>
      </trkpt>
      <trkpt lat="44.41582" lon="1.37268">
        <ele>277.20926666667</ele>
        <time>2020-02-03T13:06:58Z</time>
      </trkpt>
      <trkpt lat="44.41576" lon="1.37278">
        <ele>276.10889333333</ele>
        <time>2020-02-03T13:07:05Z</time>
      </trkpt>
      <trkpt lat="44.41573" lon="1.37288">
        <ele>275.70848</ele>
        <time>2020-02-03T13:07:12Z</time>
      </trkpt>
      <trkpt lat="44.41567" lon="1.37297">
        <ele>276.10814</ele>
        <time>2020-02-03T13:07:19Z</time>
      </trkpt>
      <trkpt lat="44.41562" lon="1.37306">
        <ele>275.60776666667</ele>
        <time>2020-02-03T13:07:27Z</time>
      </trkpt>
      <trkpt lat="44.41559" lon="1.37317">
        <ele>274.80734</ele>
        <time>2020-02-03T13:07:35Z</time>
      </trkpt>
      <trkpt lat="44.41554" lon="1.37327">
        <ele>274.90694</ele>
        <time>2020-02-03T13:07:42Z</time>
      </trkpt>
      <trkpt lat="44.41549" lon="1.37337">
        <ele>275.60654</ele>
        <time>2020-02-03T13:07:48Z</time>
      </trkpt>
      <trkpt lat="44.41545" lon="1.37348">
        <ele>277.2061</ele>
        <time>2020-02-03T13:07:55Z</time>
      </trkpt>
      <trkpt lat="44.4154" lon="1.37356">
        <ele>278.10576</ele>
        <time>2020-02-03T13:08:01Z</time>
      </trkpt>
      <trkpt lat="44.41537" lon="1.37366">
        <ele>281.00536</ele>
        <time>2020-02-03T13:08:08Z</time>
      </trkpt>
      <trkpt lat="44.4153" lon="1.37372">
        <ele>277.90512</ele>
        <time>2020-02-03T13:08:14Z</time>
      </trkpt>
      <trkpt lat="44.41524" lon="1.37382">
        <ele>276.60472</ele>
        <time>2020-02-03T13:08:22Z</time>
      </trkpt>
      <trkpt lat="44.41517" lon="1.37389">
        <ele>276.40443333333</ele>
        <time>2020-02-03T13:08:28Z</time>
      </trkpt>
      <trkpt lat="44.41514" lon="1.374">
        <ele>280.40401333333</ele>
        <time>2020-02-03T13:08:34Z</time>
      </trkpt>
      <trkpt lat="44.4151" lon="1.3741">
        <ele>282.30362</ele>
        <time>2020-02-03T13:08:41Z</time>
      </trkpt>
      <trkpt lat="44.41504" lon="1.37419">
        <ele>278.30323333333</ele>
        <time>2020-02-03T13:08:48Z</time>
      </trkpt>
      <trkpt lat="44.41499" lon="1.37428">
        <ele>275.50288</ele>
        <time>2020-02-03T13:09:08Z</time>
      </trkpt>
      <trkpt lat="44.41494" lon="1.37438">
        <ele>274.60246666667</ele>
        <time>2020-02-03T13:09:16Z</time>
      </trkpt>
      <trkpt lat="44.41501" lon="1.37444">
        <ele>272.00224</ele>
        <time>2020-02-03T13:09:26Z</time>
      </trkpt>
      <trkpt lat="44.41509" lon="1.37447">
        <ele>270.90213333333</ele>
        <time>2020-02-03T13:09:34Z</time>
      </trkpt>
      <trkpt lat="44.41518" lon="1.3745">
        <ele>271.90198666667</ele>
        <time>2020-02-03T13:09:42Z</time>
      </trkpt>
      <trkpt lat="44.41525" lon="1.37454">
        <ele>273.20182666667</ele>
        <time>2020-02-03T13:09:49Z</time>
      </trkpt>
      <trkpt lat="44.41534" lon="1.37459">
        <ele>275.30164</ele>
        <time>2020-02-03T13:09:57Z</time>
      </trkpt>
      <trkpt lat="44.41542" lon="1.37463">
        <ele>275.6015</ele>
        <time>2020-02-03T13:10:04Z</time>
      </trkpt>
      <trkpt lat="44.4155" lon="1.37467">
        <ele>276.10130666667</ele>
        <time>2020-02-03T13:10:13Z</time>
      </trkpt>
      <trkpt lat="44.41551" lon="1.37479">
        <ele>275.80086</ele>
        <time>2020-02-03T13:10:21Z</time>
      </trkpt>
      <trkpt lat="44.41551" lon="1.37489">
        <ele>274.20042666667</ele>
        <time>2020-02-03T13:10:26Z</time>
      </trkpt>
      <trkpt lat="44.41549" lon="1.37499">
        <ele>272.80002666667</ele>
        <time>2020-02-03T13:10:31Z</time>
      </trkpt>
      <trkpt lat="44.41549" lon="1.37511">
        <ele>270.49957333333</ele>
        <time>2020-02-03T13:10:37Z</time>
      </trkpt>
      <trkpt lat="44.41551" lon="1.37522">
        <ele>268.89912</ele>
        <time>2020-02-03T13:10:46Z</time>
      </trkpt>
      <trkpt lat="44.41548" lon="1.37533">
        <ele>267.19866666667</ele>
        <time>2020-02-03T13:10:53Z</time>
      </trkpt>
      <trkpt lat="44.41547" lon="1.37546">
        <ele>265.29818</ele>
        <time>2020-02-03T13:10:59Z</time>
      </trkpt>
      <trkpt lat="44.41545" lon="1.37557">
        <ele>263.59773333333</ele>
        <time>2020-02-03T13:11:05Z</time>
      </trkpt>
      <trkpt lat="44.41543" lon="1.37568">
        <ele>261.59729333333</ele>
        <time>2020-02-03T13:11:12Z</time>
      </trkpt>
      <trkpt lat="44.41547" lon="1.37579">
        <ele>262.49683333333</ele>
        <time>2020-02-03T13:11:21Z</time>
      </trkpt>
      <trkpt lat="44.41553" lon="1.37586">
        <ele>263.59654666667</ele>
        <time>2020-02-03T13:11:29Z</time>
      </trkpt>
      <trkpt lat="44.4156" lon="1.37591">
        <ele>262.49636666667</ele>
        <time>2020-02-03T13:11:37Z</time>
      </trkpt>
      <trkpt lat="44.41568" lon="1.37596">
        <ele>262.19615333333</ele>
        <time>2020-02-03T13:11:46Z</time>
      </trkpt>
      <trkpt lat="44.41575" lon="1.37603">
        <ele>261.79586666667</ele>
        <time>2020-02-03T13:11:54Z</time>
      </trkpt>
      <trkpt lat="44.41582" lon="1.3761">
        <ele>262.3956</ele>
        <time>2020-02-03T13:12:02Z</time>
      </trkpt>
      <trkpt lat="44.41588" lon="1.37616">
        <ele>262.49535333333</ele>
        <time>2020-02-03T13:12:09Z</time>
      </trkpt>
      <trkpt lat="44.41596" lon="1.37622">
        <ele>261.59510666667</ele>
        <time>2020-02-03T13:12:16Z</time>
      </trkpt>
      <trkpt lat="44.41601" lon="1.37632">
        <ele>260.19473333333</ele>
        <time>2020-02-03T13:12:25Z</time>
      </trkpt>
      <trkpt lat="44.41603" lon="1.37643">
        <ele>259.79429333333</ele>
        <time>2020-02-03T13:12:32Z</time>
      </trkpt>
      <trkpt lat="44.41604" lon="1.37655">
        <ele>257.89381333333</ele>
        <time>2020-02-03T13:12:39Z</time>
      </trkpt>
      <trkpt lat="44.41603" lon="1.37667">
        <ele>255.19334</ele>
        <time>2020-02-03T13:12:46Z</time>
      </trkpt>
      <trkpt lat="44.41603" lon="1.37679">
        <ele>253.09284</ele>
        <time>2020-02-03T13:12:53Z</time>
      </trkpt>
      <trkpt lat="44.41603" lon="1.3769">
        <ele>252.89238666667</ele>
        <time>2020-02-03T13:13:00Z</time>
      </trkpt>
      <trkpt lat="44.41603" lon="1.37703">
        <ele>252.59189333333</ele>
        <time>2020-02-03T13:13:07Z</time>
      </trkpt>
      <trkpt lat="44.41604" lon="1.37715">
        <ele>252.19141333333</ele>
        <time>2020-02-03T13:13:15Z</time>
      </trkpt>
      <trkpt lat="44.41604" lon="1.37727">
        <ele>245.59092</ele>
        <time>2020-02-03T13:14:12Z</time>
      </trkpt>
      <trkpt lat="44.41609" lon="1.37737">
        <ele>246.99053333333</ele>
        <time>2020-02-03T13:14:23Z</time>
      </trkpt>
      <trkpt lat="44.41615" lon="1.37747">
        <ele>248.09013333333</ele>
        <time>2020-02-03T13:14:33Z</time>
      </trkpt>
      <trkpt lat="44.41623" lon="1.37752">
        <ele>249.68993333333</ele>
        <time>2020-02-03T13:14:44Z</time>
      </trkpt>
      <trkpt lat="44.4163" lon="1.37759">
        <ele>253.38966</ele>
        <time>2020-02-03T13:14:55Z</time>
      </trkpt>
      <trkpt lat="44.41638" lon="1.37761">
        <ele>257.48958</ele>
        <time>2020-02-03T13:15:08Z</time>
      </trkpt>
      <trkpt lat="44.41647" lon="1.37763">
        <ele>261.28948</ele>
        <time>2020-02-03T13:15:19Z</time>
      </trkpt>
      <trkpt lat="44.41655" lon="1.37761">
        <ele>261.58956</ele>
        <time>2020-02-03T13:15:29Z</time>
      </trkpt>
      <trkpt lat="44.41663" lon="1.3776">
        <ele>259.18961333333</ele>
        <time>2020-02-03T13:15:36Z</time>
      </trkpt>
      <trkpt lat="44.41671" lon="1.37763">
        <ele>256.4895</ele>
        <time>2020-02-03T13:15:45Z</time>
      </trkpt>
      <trkpt lat="44.41676" lon="1.3777">
        <ele>253.28920666667</ele>
        <time>2020-02-03T13:15:51Z</time>
      </trkpt>
      <trkpt lat="44.4168" lon="1.3778">
        <ele>248.7888</ele>
        <time>2020-02-03T13:15:57Z</time>
      </trkpt>
      <trkpt lat="44.41681" lon="1.37792">
        <ele>244.78830666667</ele>
        <time>2020-02-03T13:16:03Z</time>
      </trkpt>
      <trkpt lat="44.41685" lon="1.37803">
        <ele>245.1879</ele>
        <time>2020-02-03T13:16:23Z</time>
      </trkpt>
      <trkpt lat="44.41691" lon="1.37811">
        <ele>245.78755333333</ele>
        <time>2020-02-03T13:16:32Z</time>
      </trkpt>
      <trkpt lat="44.41691" lon="1.37824">
        <ele>245.38705333333</ele>
        <time>2020-02-03T13:16:40Z</time>
      </trkpt>
      <trkpt lat="44.41695" lon="1.37834">
        <ele>247.58663333333</ele>
        <time>2020-02-03T13:16:49Z</time>
      </trkpt>
      <trkpt lat="44.41697" lon="1.37845">
        <ele>245.58620666667</ele>
        <time>2020-02-03T13:16:57Z</time>
      </trkpt>
      <trkpt lat="44.41695" lon="1.37855">
        <ele>244.28578666667</ele>
        <time>2020-02-03T13:17:02Z</time>
      </trkpt>
      <trkpt lat="44.4169" lon="1.37865">
        <ele>242.48538666667</ele>
        <time>2020-02-03T13:17:08Z</time>
      </trkpt>
      <trkpt lat="44.41684" lon="1.37872">
        <ele>241.58512666667</ele>
        <time>2020-02-03T13:17:14Z</time>
      </trkpt>
      <trkpt lat="44.41676" lon="1.37877">
        <ele>241.48490666667</ele>
        <time>2020-02-03T13:17:21Z</time>
      </trkpt>
      <trkpt lat="44.41668" lon="1.37881">
        <ele>240.08474666667</ele>
        <time>2020-02-03T13:17:29Z</time>
      </trkpt>
      <trkpt lat="44.4166" lon="1.37886">
        <ele>239.48457333333</ele>
        <time>2020-02-03T13:17:38Z</time>
      </trkpt>
      <trkpt lat="44.41652" lon="1.3789">
        <ele>238.68439333333</ele>
        <time>2020-02-03T13:17:48Z</time>
      </trkpt>
      <trkpt lat="44.41643" lon="1.37893">
        <ele>238.88428666667</ele>
        <time>2020-02-03T13:17:56Z</time>
      </trkpt>
      <trkpt lat="44.41635" lon="1.37896">
        <ele>237.78416</ele>
        <time>2020-02-03T13:18:05Z</time>
      </trkpt>
      <trkpt lat="44.41627" lon="1.37897">
        <ele>239.88411333333</ele>
        <time>2020-02-03T13:18:16Z</time>
      </trkpt>
      <trkpt lat="44.41619" lon="1.379">
        <ele>237.98402</ele>
        <time>2020-02-03T13:18:29Z</time>
      </trkpt>
      <trkpt lat="44.4161" lon="1.37898">
        <ele>231.5841</ele>
        <time>2020-02-03T13:18:41Z</time>
      </trkpt>
      <trkpt lat="44.41603" lon="1.37902">
        <ele>227.58390666667</ele>
        <time>2020-02-03T13:18:58Z</time>
      </trkpt>
      <trkpt lat="44.41597" lon="1.37912">
        <ele>227.18350666667</ele>
        <time>2020-02-03T13:19:07Z</time>
      </trkpt>
      <trkpt lat="44.41592" lon="1.37922">
        <ele>229.68312</ele>
        <time>2020-02-03T13:19:15Z</time>
      </trkpt>
      <trkpt lat="44.41587" lon="1.37931">
        <ele>232.28276666667</ele>
        <time>2020-02-03T13:19:25Z</time>
      </trkpt>
      <trkpt lat="44.4158" lon="1.37939">
        <ele>235.28242666667</ele>
        <time>2020-02-03T13:19:41Z</time>
      </trkpt>
      <trkpt lat="44.41572" lon="1.37944">
        <ele>239.58222666667</ele>
        <time>2020-02-03T13:19:53Z</time>
      </trkpt>
      <trkpt lat="44.41565" lon="1.3795">
        <ele>240.08200666667</ele>
        <time>2020-02-03T13:20:04Z</time>
      </trkpt>
      <trkpt lat="44.41558" lon="1.37957">
        <ele>238.98171333333</ele>
        <time>2020-02-03T13:20:15Z</time>
      </trkpt>
      <trkpt lat="44.41551" lon="1.37966">
        <ele>242.08137333333</ele>
        <time>2020-02-03T13:20:28Z</time>
      </trkpt>
      <trkpt lat="44.4155" lon="1.37978">
        <ele>245.2809</ele>
        <time>2020-02-03T13:20:48Z</time>
      </trkpt>
      <trkpt lat="44.41548" lon="1.3799">
        <ele>249.68041333333</ele>
        <time>2020-02-03T13:21:01Z</time>
      </trkpt>
      <trkpt lat="44.41545" lon="1.38001">
        <ele>249.37996</ele>
        <time>2020-02-03T13:21:08Z</time>
      </trkpt>
      <trkpt lat="44.41542" lon="1.38013">
        <ele>249.2795</ele>
        <time>2020-02-03T13:21:17Z</time>
      </trkpt>
      <trkpt lat="44.41541" lon="1.38023">
        <ele>249.37907333333</ele>
        <time>2020-02-03T13:21:25Z</time>
      </trkpt>
      <trkpt lat="44.41545" lon="1.38034">
        <ele>249.17865333333</ele>
        <time>2020-02-03T13:21:33Z</time>
      </trkpt>
      <trkpt lat="44.41549" lon="1.38044">
        <ele>250.27824666667</ele>
        <time>2020-02-03T13:21:42Z</time>
      </trkpt>
      <trkpt lat="44.41556" lon="1.3805">
        <ele>250.37798666667</ele>
        <time>2020-02-03T13:21:50Z</time>
      </trkpt>
      <trkpt lat="44.41563" lon="1.38056">
        <ele>250.57776</ele>
        <time>2020-02-03T13:21:59Z</time>
      </trkpt>
      <trkpt lat="44.41571" lon="1.38061">
        <ele>249.57757333333</ele>
        <time>2020-02-03T13:22:07Z</time>
      </trkpt>
      <trkpt lat="44.4158" lon="1.38064">
        <ele>248.07744666667</ele>
        <time>2020-02-03T13:22:16Z</time>
      </trkpt>
      <trkpt lat="44.41588" lon="1.38067">
        <ele>248.77732</ele>
        <time>2020-02-03T13:22:23Z</time>
      </trkpt>
      <trkpt lat="44.41596" lon="1.3807">
        <ele>250.27720666667</ele>
        <time>2020-02-03T13:22:31Z</time>
      </trkpt>
      <trkpt lat="44.41605" lon="1.38073">
        <ele>247.57709333333</ele>
        <time>2020-02-03T13:22:38Z</time>
      </trkpt>
      <trkpt lat="44.41613" lon="1.38075">
        <ele>246.77701333333</ele>
        <time>2020-02-03T13:22:45Z</time>
      </trkpt>
      <trkpt lat="44.41622" lon="1.38077">
        <ele>250.67692666667</ele>
        <time>2020-02-03T13:22:54Z</time>
      </trkpt>
      <trkpt lat="44.4163" lon="1.38078">
        <ele>253.7769</ele>
        <time>2020-02-03T13:23:03Z</time>
      </trkpt>
      <trkpt lat="44.41638" lon="1.3808">
        <ele>249.17682</ele>
        <time>2020-02-03T13:23:09Z</time>
      </trkpt>
      <trkpt lat="44.41647" lon="1.3808">
        <ele>246.67678666667</ele>
        <time>2020-02-03T13:23:16Z</time>
      </trkpt>
      <trkpt lat="44.41656" lon="1.38082">
        <ele>246.17672666667</ele>
        <time>2020-02-03T13:23:23Z</time>
      </trkpt>
      <trkpt lat="44.41665" lon="1.38082">
        <ele>244.97673333333</ele>
        <time>2020-02-03T13:23:30Z</time>
      </trkpt>
      <trkpt lat="44.41672" lon="1.38082">
        <ele>248.27674</ele>
        <time>2020-02-03T13:23:36Z</time>
      </trkpt>
      <trkpt lat="44.41681" lon="1.38084">
        <ele>248.27666</ele>
        <time>2020-02-03T13:23:42Z</time>
      </trkpt>
      <trkpt lat="44.41689" lon="1.38086">
        <ele>247.97655333333</ele>
        <time>2020-02-03T13:23:50Z</time>
      </trkpt>
      <trkpt lat="44.41689" lon="1.38098">
        <ele>247.27608666667</ele>
        <time>2020-02-03T13:23:59Z</time>
      </trkpt>
      <trkpt lat="44.41684" lon="1.38107">
        <ele>245.87573333333</ele>
        <time>2020-02-03T13:24:05Z</time>
      </trkpt>
      <trkpt lat="44.41681" lon="1.38118">
        <ele>246.37528</ele>
        <time>2020-02-03T13:24:12Z</time>
      </trkpt>
      <trkpt lat="44.41678" lon="1.38128">
        <ele>246.37488666667</ele>
        <time>2020-02-03T13:24:18Z</time>
      </trkpt>
      <trkpt lat="44.41673" lon="1.38139">
        <ele>245.07446</ele>
        <time>2020-02-03T13:24:25Z</time>
      </trkpt>
      <trkpt lat="44.41668" lon="1.38147">
        <ele>242.37411333333</ele>
        <time>2020-02-03T13:24:54Z</time>
      </trkpt>
      <trkpt lat="44.41664" lon="1.38159">
        <ele>241.97366</ele>
        <time>2020-02-03T13:25:02Z</time>
      </trkpt>
      <trkpt lat="44.4166" lon="1.38169">
        <ele>240.97324666667</ele>
        <time>2020-02-03T13:25:09Z</time>
      </trkpt>
      <trkpt lat="44.41657" lon="1.38179">
        <ele>240.47284666667</ele>
        <time>2020-02-03T13:25:17Z</time>
      </trkpt>
      <trkpt lat="44.41653" lon="1.3819">
        <ele>238.37240666667</ele>
        <time>2020-02-03T13:25:26Z</time>
      </trkpt>
      <trkpt lat="44.4165" lon="1.382">
        <ele>238.47201333333</ele>
        <time>2020-02-03T13:25:32Z</time>
      </trkpt>
      <trkpt lat="44.41648" lon="1.3821">
        <ele>237.37158666667</ele>
        <time>2020-02-03T13:25:38Z</time>
      </trkpt>
      <trkpt lat="44.41646" lon="1.38222">
        <ele>237.77113333333</ele>
        <time>2020-02-03T13:25:44Z</time>
      </trkpt>
      <trkpt lat="44.41645" lon="1.38234">
        <ele>237.87063333333</ele>
        <time>2020-02-03T13:25:51Z</time>
      </trkpt>
      <trkpt lat="44.41644" lon="1.38245">
        <ele>238.97019333333</ele>
        <time>2020-02-03T13:25:57Z</time>
      </trkpt>
      <trkpt lat="44.41644" lon="1.38257">
        <ele>239.56972666667</ele>
        <time>2020-02-03T13:26:04Z</time>
      </trkpt>
      <trkpt lat="44.41647" lon="1.38268">
        <ele>239.76928</ele>
        <time>2020-02-03T13:26:12Z</time>
      </trkpt>
      <trkpt lat="44.41647" lon="1.3828">
        <ele>239.86878666667</ele>
        <time>2020-02-03T13:26:20Z</time>
      </trkpt>
      <trkpt lat="44.41648" lon="1.38293">
        <ele>240.36829333333</ele>
        <time>2020-02-03T13:26:29Z</time>
      </trkpt>
      <trkpt lat="44.41646" lon="1.38305">
        <ele>238.26782</ele>
        <time>2020-02-03T13:26:36Z</time>
      </trkpt>
      <trkpt lat="44.41646" lon="1.38317">
        <ele>237.76733333333</ele>
        <time>2020-02-03T13:26:44Z</time>
      </trkpt>
      <trkpt lat="44.41645" lon="1.38328">
        <ele>237.66687333333</ele>
        <time>2020-02-03T13:26:51Z</time>
      </trkpt>
      <trkpt lat="44.41641" lon="1.3834">
        <ele>236.86641333333</ele>
        <time>2020-02-03T13:26:58Z</time>
      </trkpt>
      <trkpt lat="44.41638" lon="1.38351">
        <ele>236.36594666667</ele>
        <time>2020-02-03T13:27:05Z</time>
      </trkpt>
      <trkpt lat="44.41636" lon="1.38362">
        <ele>235.96553333333</ele>
        <time>2020-02-03T13:27:11Z</time>
      </trkpt>
      <trkpt lat="44.41633" lon="1.38373">
        <ele>237.56508666667</ele>
        <time>2020-02-03T13:27:18Z</time>
      </trkpt>
      <trkpt lat="44.41634" lon="1.38384">
        <ele>238.66463333333</ele>
        <time>2020-02-03T13:27:25Z</time>
      </trkpt>
      <trkpt lat="44.41636" lon="1.38396">
        <ele>239.46416666667</ele>
        <time>2020-02-03T13:27:33Z</time>
      </trkpt>
      <trkpt lat="44.41639" lon="1.38407">
        <ele>240.26370666667</ele>
        <time>2020-02-03T13:27:41Z</time>
      </trkpt>
      <trkpt lat="44.41642" lon="1.38418">
        <ele>239.46328</ele>
        <time>2020-02-03T13:27:48Z</time>
      </trkpt>
      <trkpt lat="44.41646" lon="1.38429">
        <ele>239.86284</ele>
        <time>2020-02-03T13:27:56Z</time>
      </trkpt>
      <trkpt lat="44.41649" lon="1.3844">
        <ele>238.96241333333</ele>
        <time>2020-02-03T13:28:02Z</time>
      </trkpt>
      <trkpt lat="44.41651" lon="1.38452">
        <ele>235.76194</ele>
        <time>2020-02-03T13:28:09Z</time>
      </trkpt>
      <trkpt lat="44.41653" lon="1.38463">
        <ele>228.86148</ele>
        <time>2020-02-03T13:28:16Z</time>
      </trkpt>
      <trkpt lat="44.41656" lon="1.38474">
        <ele>229.66106</ele>
        <time>2020-02-03T13:28:22Z</time>
      </trkpt>
      <trkpt lat="44.4166" lon="1.38483">
        <ele>231.36066666667</ele>
        <time>2020-02-03T13:28:28Z</time>
      </trkpt>
      <trkpt lat="44.41663" lon="1.38495">
        <ele>233.2602</ele>
        <time>2020-02-03T13:28:35Z</time>
      </trkpt>
      <trkpt lat="44.41667" lon="1.38506">
        <ele>235.35978</ele>
        <time>2020-02-03T13:28:42Z</time>
      </trkpt>
      <trkpt lat="44.41671" lon="1.38516">
        <ele>236.55936666667</ele>
        <time>2020-02-03T13:28:49Z</time>
      </trkpt>
      <trkpt lat="44.41674" lon="1.38526">
        <ele>237.85897333333</ele>
        <time>2020-02-03T13:28:55Z</time>
      </trkpt>
      <trkpt lat="44.41678" lon="1.38537">
        <ele>238.35853333333</ele>
        <time>2020-02-03T13:29:02Z</time>
      </trkpt>
      <trkpt lat="44.41682" lon="1.38547">
        <ele>239.95810666667</ele>
        <time>2020-02-03T13:29:09Z</time>
      </trkpt>
      <trkpt lat="44.41684" lon="1.38558">
        <ele>239.45766666667</ele>
        <time>2020-02-03T13:29:16Z</time>
      </trkpt>
      <trkpt lat="44.41688" lon="1.38569">
        <ele>240.45724</ele>
        <time>2020-02-03T13:29:23Z</time>
      </trkpt>
      <trkpt lat="44.41692" lon="1.3858">
        <ele>241.75682</ele>
        <time>2020-02-03T13:29:30Z</time>
      </trkpt>
      <trkpt lat="44.41695" lon="1.3859">
        <ele>240.4564</ele>
        <time>2020-02-03T13:29:36Z</time>
      </trkpt>
      <trkpt lat="44.41698" lon="1.38601">
        <ele>241.05596666667</ele>
        <time>2020-02-03T13:29:43Z</time>
      </trkpt>
      <trkpt lat="44.41702" lon="1.38611">
        <ele>241.35554666667</ele>
        <time>2020-02-03T13:29:50Z</time>
      </trkpt>
      <trkpt lat="44.41705" lon="1.38623">
        <ele>240.65509333333</ele>
        <time>2020-02-03T13:29:57Z</time>
      </trkpt>
      <trkpt lat="44.4171" lon="1.38633">
        <ele>239.45468</ele>
        <time>2020-02-03T13:30:06Z</time>
      </trkpt>
      <trkpt lat="44.41715" lon="1.38642">
        <ele>243.05431333333</ele>
        <time>2020-02-03T13:30:17Z</time>
      </trkpt>
      <trkpt lat="44.41721" lon="1.3865">
        <ele>244.65400666667</ele>
        <time>2020-02-03T13:30:25Z</time>
      </trkpt>
      <trkpt lat="44.41725" lon="1.38661">
        <ele>243.05358</ele>
        <time>2020-02-03T13:30:32Z</time>
      </trkpt>
      <trkpt lat="44.4173" lon="1.3867">
        <ele>244.15318666667</ele>
        <time>2020-02-03T13:30:40Z</time>
      </trkpt>
      <trkpt lat="44.41733" lon="1.38681">
        <ele>243.75276</ele>
        <time>2020-02-03T13:30:48Z</time>
      </trkpt>
      <trkpt lat="44.41737" lon="1.38692">
        <ele>242.05234</ele>
        <time>2020-02-03T13:30:54Z</time>
      </trkpt>
      <trkpt lat="44.41741" lon="1.38703">
        <ele>241.5519</ele>
        <time>2020-02-03T13:31:02Z</time>
      </trkpt>
      <trkpt lat="44.41745" lon="1.38713">
        <ele>241.05148666667</ele>
        <time>2020-02-03T13:31:10Z</time>
      </trkpt>
      <trkpt lat="44.41749" lon="1.38723">
        <ele>240.75106666667</ele>
        <time>2020-02-03T13:31:18Z</time>
      </trkpt>
      <trkpt lat="44.41752" lon="1.38735">
        <ele>240.05059333333</ele>
        <time>2020-02-03T13:31:26Z</time>
      </trkpt>
      <trkpt lat="44.41751" lon="1.38747">
        <ele>239.15013333333</ele>
        <time>2020-02-03T13:31:33Z</time>
      </trkpt>
      <trkpt lat="44.41747" lon="1.38757">
        <ele>238.04970666667</ele>
        <time>2020-02-03T13:31:43Z</time>
      </trkpt>
      <trkpt lat="44.41749" lon="1.3877">
        <ele>238.94922</ele>
        <time>2020-02-03T13:33:23Z</time>
      </trkpt>
      <trkpt lat="44.41751" lon="1.38781">
        <ele>238.14877333333</ele>
        <time>2020-02-03T13:33:33Z</time>
      </trkpt>
      <trkpt lat="44.41757" lon="1.38791">
        <ele>238.84836666667</ele>
        <time>2020-02-03T13:33:43Z</time>
      </trkpt>
      <trkpt lat="44.4176" lon="1.38801">
        <ele>239.84796666667</ele>
        <time>2020-02-03T13:33:52Z</time>
      </trkpt>
      <trkpt lat="44.41763" lon="1.38811">
        <ele>240.94756</ele>
        <time>2020-02-03T13:33:59Z</time>
      </trkpt>
      <trkpt lat="44.41763" lon="1.38823">
        <ele>239.34706666667</ele>
        <time>2020-02-03T13:34:09Z</time>
      </trkpt>
      <trkpt lat="44.41759" lon="1.38833">
        <ele>237.64666666667</ele>
        <time>2020-02-03T13:34:17Z</time>
      </trkpt>
      <trkpt lat="44.41758" lon="1.38845">
        <ele>237.8462</ele>
        <time>2020-02-03T13:34:24Z</time>
      </trkpt>
      <trkpt lat="44.41757" lon="1.38857">
        <ele>237.84572666667</ele>
        <time>2020-02-03T13:34:31Z</time>
      </trkpt>
      <trkpt lat="44.41755" lon="1.38869">
        <ele>237.64524</ele>
        <time>2020-02-03T13:34:39Z</time>
      </trkpt>
      <trkpt lat="44.41754" lon="1.38881">
        <ele>237.94476</ele>
        <time>2020-02-03T13:34:47Z</time>
      </trkpt>
      <trkpt lat="44.41752" lon="1.38892">
        <ele>237.84430666667</ele>
        <time>2020-02-03T13:34:55Z</time>
      </trkpt>
      <trkpt lat="44.41753" lon="1.38904">
        <ele>238.14382666667</ele>
        <time>2020-02-03T13:35:03Z</time>
      </trkpt>
      <trkpt lat="44.41753" lon="1.38917">
        <ele>238.14333333333</ele>
        <time>2020-02-03T13:35:11Z</time>
      </trkpt>
      <trkpt lat="44.41751" lon="1.38928">
        <ele>235.24288666667</ele>
        <time>2020-02-03T13:35:21Z</time>
      </trkpt>
      <trkpt lat="44.41759" lon="1.38931">
        <ele>234.14276666667</ele>
        <time>2020-02-03T13:35:41Z</time>
      </trkpt>
      <trkpt lat="44.41753" lon="1.38939">
        <ele>235.94243333333</ele>
        <time>2020-02-03T13:36:02Z</time>
      </trkpt>
      <trkpt lat="44.41746" lon="1.38946">
        <ele>236.24217333333</ele>
        <time>2020-02-03T13:36:12Z</time>
      </trkpt>
      <trkpt lat="44.41738" lon="1.38951">
        <ele>235.44194666667</ele>
        <time>2020-02-03T13:36:25Z</time>
      </trkpt>
      <trkpt lat="44.41732" lon="1.38959">
        <ele>231.84164</ele>
        <time>2020-02-03T13:36:34Z</time>
      </trkpt>
      <trkpt lat="44.41737" lon="1.38969">
        <ele>232.54126</ele>
        <time>2020-02-03T13:36:50Z</time>
      </trkpt>
      <trkpt lat="44.41745" lon="1.38974">
        <ele>231.64105333333</ele>
        <time>2020-02-03T13:37:04Z</time>
      </trkpt>
      <trkpt lat="44.41753" lon="1.38979">
        <ele>235.94085333333</ele>
        <time>2020-02-03T13:37:47Z</time>
      </trkpt>
      <trkpt lat="44.41761" lon="1.38984">
        <ele>237.84062666667</ele>
        <time>2020-02-03T13:37:56Z</time>
      </trkpt>
      <trkpt lat="44.41768" lon="1.38989">
        <ele>238.54043333333</ele>
        <time>2020-02-03T13:38:03Z</time>
      </trkpt>
      <trkpt lat="44.41776" lon="1.38996">
        <ele>234.64017333333</ele>
        <time>2020-02-03T13:38:13Z</time>
      </trkpt>
      <trkpt lat="44.41781" lon="1.39005">
        <ele>234.53978666667</ele>
        <time>2020-02-03T13:38:22Z</time>
      </trkpt>
      <trkpt lat="44.41782" lon="1.39016">
        <ele>237.03934666667</ele>
        <time>2020-02-03T13:38:30Z</time>
      </trkpt>
      <trkpt lat="44.41784" lon="1.39028">
        <ele>234.4389</ele>
        <time>2020-02-03T13:38:36Z</time>
      </trkpt>
      <trkpt lat="44.41784" lon="1.39039">
        <ele>231.73842666667</ele>
        <time>2020-02-03T13:38:43Z</time>
      </trkpt>
      <trkpt lat="44.41783" lon="1.39051">
        <ele>228.23796666667</ele>
        <time>2020-02-03T13:38:48Z</time>
      </trkpt>
      <trkpt lat="44.41779" lon="1.39061">
        <ele>226.83755333333</ele>
        <time>2020-02-03T13:38:53Z</time>
      </trkpt>
      <trkpt lat="44.41775" lon="1.39071">
        <ele>226.33717333333</ele>
        <time>2020-02-03T13:38:58Z</time>
      </trkpt>
      <trkpt lat="44.41772" lon="1.39082">
        <ele>224.23671333333</ele>
        <time>2020-02-03T13:39:04Z</time>
      </trkpt>
      <trkpt lat="44.41768" lon="1.39091">
        <ele>223.33636</ele>
        <time>2020-02-03T13:39:10Z</time>
      </trkpt>
      <trkpt lat="44.41763" lon="1.391">
        <ele>220.13599333333</ele>
        <time>2020-02-03T13:39:17Z</time>
      </trkpt>
      <trkpt lat="44.41756" lon="1.39107">
        <ele>217.23572666667</ele>
        <time>2020-02-03T13:39:27Z</time>
      </trkpt>
      <trkpt lat="44.41748" lon="1.39113">
        <ele>216.63549333333</ele>
        <time>2020-02-03T13:39:40Z</time>
      </trkpt>
      <trkpt lat="44.41742" lon="1.39121">
        <ele>213.93516666667</ele>
        <time>2020-02-03T13:39:47Z</time>
      </trkpt>
      <trkpt lat="44.41735" lon="1.39126">
        <ele>209.73497333333</ele>
        <time>2020-02-03T13:40:08Z</time>
      </trkpt>
      <trkpt lat="44.41727" lon="1.39132">
        <ele>211.33473333333</ele>
        <time>2020-02-03T13:40:16Z</time>
      </trkpt>
      <trkpt lat="44.4172" lon="1.39136">
        <ele>210.63458</ele>
        <time>2020-02-03T13:40:23Z</time>
      </trkpt>
      <trkpt lat="44.41713" lon="1.3914">
        <ele>209.8344</ele>
        <time>2020-02-03T13:40:30Z</time>
      </trkpt>
      <trkpt lat="44.41706" lon="1.39147">
        <ele>206.93413333333</ele>
        <time>2020-02-03T13:40:38Z</time>
      </trkpt>
      <trkpt lat="44.41699" lon="1.39154">
        <ele>206.03385333333</ele>
        <time>2020-02-03T13:40:48Z</time>
      </trkpt>
      <trkpt lat="44.41693" lon="1.39159">
        <ele>205.03364666667</ele>
        <time>2020-02-03T13:41:04Z</time>
      </trkpt>
      <trkpt lat="44.41687" lon="1.39167">
        <ele>200.33333333333</ele>
        <time>2020-02-03T13:41:12Z</time>
      </trkpt>
      <trkpt lat="44.41682" lon="1.39176">
        <ele>199.33294666667</ele>
        <time>2020-02-03T13:41:23Z</time>
      </trkpt>
      <trkpt lat="44.41677" lon="1.39185">
        <ele>199.83259333333</ele>
        <time>2020-02-03T13:41:34Z</time>
      </trkpt>
      <trkpt lat="44.41674" lon="1.39197">
        <ele>198.63214</ele>
        <time>2020-02-03T13:41:45Z</time>
      </trkpt>
      <trkpt lat="44.41672" lon="1.39209">
        <ele>196.63165333333</ele>
        <time>2020-02-03T13:41:56Z</time>
      </trkpt>
      <trkpt lat="44.41665" lon="1.39201">
        <ele>196.03194666667</ele>
        <time>2020-02-03T13:42:12Z</time>
      </trkpt>
      <trkpt lat="44.41664" lon="1.39189">
        <ele>196.63244</ele>
        <time>2020-02-03T13:42:23Z</time>
      </trkpt>
      <trkpt lat="44.41665" lon="1.39177">
        <ele>196.63294</ele>
        <time>2020-02-03T13:42:33Z</time>
      </trkpt>
      <trkpt lat="44.41666" lon="1.39164">
        <ele>198.23342666667</ele>
        <time>2020-02-03T13:42:44Z</time>
      </trkpt>
      <trkpt lat="44.41668" lon="1.39152">
        <ele>199.03391333333</ele>
        <time>2020-02-03T13:42:54Z</time>
      </trkpt>
      <trkpt lat="44.4167" lon="1.3914">
        <ele>195.53439333333</ele>
        <time>2020-02-03T13:43:04Z</time>
      </trkpt>
      <trkpt lat="44.41671" lon="1.39128">
        <ele>191.53488666667</ele>
        <time>2020-02-03T13:43:15Z</time>
      </trkpt>
      <trkpt lat="44.41673" lon="1.39116">
        <ele>187.33536666667</ele>
        <time>2020-02-03T13:43:26Z</time>
      </trkpt>
      <trkpt lat="44.41677" lon="1.39105">
        <ele>183.43581333333</ele>
        <time>2020-02-03T13:43:37Z</time>
      </trkpt>
      <trkpt lat="44.41678" lon="1.39093">
        <ele>184.0363</ele>
        <time>2020-02-03T13:43:48Z</time>
      </trkpt>
      <trkpt lat="44.41673" lon="1.39083">
        <ele>188.03668</ele>
        <time>2020-02-03T13:44:00Z</time>
      </trkpt>
      <trkpt lat="44.41666" lon="1.39077">
        <ele>194.13693333333</ele>
        <time>2020-02-03T13:44:11Z</time>
      </trkpt>
      <trkpt lat="44.41659" lon="1.39069">
        <ele>194.33724666667</ele>
        <time>2020-02-03T13:44:20Z</time>
      </trkpt>
      <trkpt lat="44.41651" lon="1.39064">
        <ele>200.93742666667</ele>
        <time>2020-02-03T13:44:27Z</time>
      </trkpt>
      <trkpt lat="44.41645" lon="1.39056">
        <ele>206.43774666667</ele>
        <time>2020-02-03T13:44:34Z</time>
      </trkpt>
      <trkpt lat="44.4164" lon="1.39047">
        <ele>208.33812</ele>
        <time>2020-02-03T13:44:41Z</time>
      </trkpt>
      <trkpt lat="44.41632" lon="1.39042">
        <ele>209.93831333333</ele>
        <time>2020-02-03T13:44:47Z</time>
      </trkpt>
      <trkpt lat="44.41627" lon="1.39033">
        <ele>207.73869333333</ele>
        <time>2020-02-03T13:44:54Z</time>
      </trkpt>
      <trkpt lat="44.4162" lon="1.3903">
        <ele>206.13878666667</ele>
        <time>2020-02-03T13:45:04Z</time>
      </trkpt>
      <trkpt lat="44.41611" lon="1.39028">
        <ele>206.43889333333</ele>
        <time>2020-02-03T13:45:14Z</time>
      </trkpt>
      <trkpt lat="44.41616" lon="1.39025">
        <ele>177.23900666667</ele>
        <time>2020-02-03T13:46:18Z</time>
      </trkpt>
      <trkpt lat="44.4162" lon="1.3904">
        <ele>181.23841333333</ele>
        <time>2020-02-03T13:46:22Z</time>
      </trkpt>
      <trkpt lat="44.41624" lon="1.3905">
        <ele>181.83799333333</ele>
        <time>2020-02-03T13:46:36Z</time>
      </trkpt>
      <trkpt lat="44.41625" lon="1.39058">
        <ele>186.03767333333</ele>
        <time>2020-02-03T13:47:24Z</time>
      </trkpt>
      <trkpt lat="44.41628" lon="1.3907">
        <ele>187.63720666667</ele>
        <time>2020-02-03T13:47:35Z</time>
      </trkpt>
      <trkpt lat="44.4163" lon="1.39081">
        <ele>188.03674666667</ele>
        <time>2020-02-03T13:47:44Z</time>
      </trkpt>
      <trkpt lat="44.41632" lon="1.39093">
        <ele>187.23628666667</ele>
        <time>2020-02-03T13:47:51Z</time>
      </trkpt>
      <trkpt lat="44.41631" lon="1.39105">
        <ele>183.23579333333</ele>
        <time>2020-02-03T13:47:58Z</time>
      </trkpt>
      <trkpt lat="44.41629" lon="1.39117">
        <ele>181.53532</ele>
        <time>2020-02-03T13:48:04Z</time>
      </trkpt>
      <trkpt lat="44.41626" lon="1.39129">
        <ele>179.93486</ele>
        <time>2020-02-03T13:48:12Z</time>
      </trkpt>
      <trkpt lat="44.41622" lon="1.39139">
        <ele>177.53444666667</ele>
        <time>2020-02-03T13:48:19Z</time>
      </trkpt>
      <trkpt lat="44.41619" lon="1.3915">
        <ele>175.03402</ele>
        <time>2020-02-03T13:48:26Z</time>
      </trkpt>
      <trkpt lat="44.41615" lon="1.39161">
        <ele>173.73357333333</ele>
        <time>2020-02-03T13:48:33Z</time>
      </trkpt>
      <trkpt lat="44.41614" lon="1.39173">
        <ele>173.03308</ele>
        <time>2020-02-03T13:48:39Z</time>
      </trkpt>
      <trkpt lat="44.41612" lon="1.39185">
        <ele>171.03260666667</ele>
        <time>2020-02-03T13:48:45Z</time>
      </trkpt>
      <trkpt lat="44.41609" lon="1.39197">
        <ele>169.73213333333</ele>
        <time>2020-02-03T13:48:51Z</time>
      </trkpt>
      <trkpt lat="44.41605" lon="1.39207">
        <ele>169.63172</ele>
        <time>2020-02-03T13:48:58Z</time>
      </trkpt>
      <trkpt lat="44.41602" lon="1.39218">
        <ele>168.43126666667</ele>
        <time>2020-02-03T13:49:07Z</time>
      </trkpt>
      <trkpt lat="44.41598" lon="1.39229">
        <ele>169.63082666667</ele>
        <time>2020-02-03T13:49:17Z</time>
      </trkpt>
      <trkpt lat="44.41596" lon="1.3924">
        <ele>170.03038666667</ele>
        <time>2020-02-03T13:49:24Z</time>
      </trkpt>
      <trkpt lat="44.41593" lon="1.39252">
        <ele>178.42992</ele>
        <time>2020-02-03T13:49:39Z</time>
      </trkpt>
      <trkpt lat="44.41587" lon="1.39261">
        <ele>178.12957333333</ele>
        <time>2020-02-03T13:49:46Z</time>
      </trkpt>
      <trkpt lat="44.4158" lon="1.39268">
        <ele>177.72926666667</ele>
        <time>2020-02-03T13:49:54Z</time>
      </trkpt>
      <trkpt lat="44.41573" lon="1.39274">
        <ele>179.42904</ele>
        <time>2020-02-03T13:50:01Z</time>
      </trkpt>
      <trkpt lat="44.41566" lon="1.3928">
        <ele>177.72879333333</ele>
        <time>2020-02-03T13:50:07Z</time>
      </trkpt>
      <trkpt lat="44.4156" lon="1.39286">
        <ele>174.02855333333</ele>
        <time>2020-02-03T13:50:15Z</time>
      </trkpt>
      <trkpt lat="44.41555" lon="1.39295">
        <ele>172.42818666667</ele>
        <time>2020-02-03T13:50:23Z</time>
      </trkpt>
      <trkpt lat="44.4155" lon="1.39303">
        <ele>170.02788</ele>
        <time>2020-02-03T13:50:29Z</time>
      </trkpt>
      <trkpt lat="44.41545" lon="1.39313">
        <ele>168.5275</ele>
        <time>2020-02-03T13:50:35Z</time>
      </trkpt>
      <trkpt lat="44.41537" lon="1.39318">
        <ele>167.12729333333</ele>
        <time>2020-02-03T13:50:44Z</time>
      </trkpt>
      <trkpt lat="44.41531" lon="1.39325">
        <ele>166.52700666667</ele>
        <time>2020-02-03T13:50:52Z</time>
      </trkpt>
      <trkpt lat="44.41525" lon="1.39333">
        <ele>163.4267</ele>
        <time>2020-02-03T13:50:59Z</time>
      </trkpt>
      <trkpt lat="44.4152" lon="1.39342">
        <ele>161.22631333333</ele>
        <time>2020-02-03T13:51:07Z</time>
      </trkpt>
      <trkpt lat="44.41513" lon="1.39349">
        <ele>160.32606</ele>
        <time>2020-02-03T13:51:15Z</time>
      </trkpt>
      <trkpt lat="44.41506" lon="1.39356">
        <ele>160.22577333333</ele>
        <time>2020-02-03T13:51:24Z</time>
      </trkpt>
      <trkpt lat="44.41499" lon="1.39361">
        <ele>161.22555333333</ele>
        <time>2020-02-03T13:51:32Z</time>
      </trkpt>
      <trkpt lat="44.41493" lon="1.39369">
        <ele>159.72524666667</ele>
        <time>2020-02-03T13:51:38Z</time>
      </trkpt>
      <trkpt lat="44.41487" lon="1.39377">
        <ele>156.22491333333</ele>
        <time>2020-02-03T13:51:46Z</time>
      </trkpt>
      <trkpt lat="44.41482" lon="1.39384">
        <ele>153.92464</ele>
        <time>2020-02-03T13:51:56Z</time>
      </trkpt>
      <trkpt lat="44.41477" lon="1.39395">
        <ele>154.12418666667</ele>
        <time>2020-02-03T13:52:01Z</time>
      </trkpt>
      <trkpt lat="44.41469" lon="1.39406">
        <ele>155.72378</ele>
        <time>2020-02-03T13:52:06Z</time>
      </trkpt>
      <trkpt lat="44.41464" lon="1.39416">
        <ele>159.12338</ele>
        <time>2020-02-03T13:52:12Z</time>
      </trkpt>
      <trkpt lat="44.41461" lon="1.39427">
        <ele>162.22292</ele>
        <time>2020-02-03T13:52:26Z</time>
      </trkpt>
      <trkpt lat="44.41458" lon="1.39439">
        <ele>162.12244666667</ele>
        <time>2020-02-03T13:52:35Z</time>
      </trkpt>
      <trkpt lat="44.41457" lon="1.3945">
        <ele>163.62199333333</ele>
        <time>2020-02-03T13:52:42Z</time>
      </trkpt>
      <trkpt lat="44.41454" lon="1.39462">
        <ele>166.12152</ele>
        <time>2020-02-03T13:52:52Z</time>
      </trkpt>
      <trkpt lat="44.41454" lon="1.39474">
        <ele>166.32102666667</ele>
        <time>2020-02-03T13:53:00Z</time>
      </trkpt>
      <trkpt lat="44.41452" lon="1.39485">
        <ele>167.72058666667</ele>
        <time>2020-02-03T13:53:09Z</time>
      </trkpt>
      <trkpt lat="44.4145" lon="1.39496">
        <ele>163.62014666667</ele>
        <time>2020-02-03T13:53:16Z</time>
      </trkpt>
      <trkpt lat="44.41447" lon="1.39507">
        <ele>159.21972666667</ele>
        <time>2020-02-03T13:53:24Z</time>
      </trkpt>
      <trkpt lat="44.41448" lon="1.39519">
        <ele>159.51926</ele>
        <time>2020-02-03T13:53:29Z</time>
      </trkpt>
      <trkpt lat="44.41453" lon="1.39527">
        <ele>157.21892</ele>
        <time>2020-02-03T13:53:34Z</time>
      </trkpt>
      <trkpt lat="44.41458" lon="1.39537">
        <ele>155.81852</ele>
        <time>2020-02-03T13:53:40Z</time>
      </trkpt>
      <trkpt lat="44.41462" lon="1.39548">
        <ele>156.11809333333</ele>
        <time>2020-02-03T13:53:48Z</time>
      </trkpt>
      <trkpt lat="44.41465" lon="1.3956">
        <ele>157.61762</ele>
        <time>2020-02-03T13:53:57Z</time>
      </trkpt>
      <trkpt lat="44.41467" lon="1.39569">
        <ele>159.01722666667</ele>
        <time>2020-02-03T13:54:04Z</time>
      </trkpt>
      <trkpt lat="44.41467" lon="1.39581">
        <ele>159.01676666667</ele>
        <time>2020-02-03T13:54:11Z</time>
      </trkpt>
      <trkpt lat="44.41468" lon="1.39593">
        <ele>159.5163</ele>
        <time>2020-02-03T13:54:18Z</time>
      </trkpt>
      <trkpt lat="44.4147" lon="1.39604">
        <ele>160.71583333333</ele>
        <time>2020-02-03T13:54:25Z</time>
      </trkpt>
      <trkpt lat="44.41473" lon="1.39615">
        <ele>161.1154</ele>
        <time>2020-02-03T13:54:32Z</time>
      </trkpt>
      <trkpt lat="44.41474" lon="1.39626">
        <ele>161.31497333333</ele>
        <time>2020-02-03T13:54:37Z</time>
      </trkpt>
      <trkpt lat="44.41473" lon="1.39637">
        <ele>161.31454</ele>
        <time>2020-02-03T13:54:42Z</time>
      </trkpt>
      <trkpt lat="44.41476" lon="1.39647">
        <ele>157.81412</ele>
        <time>2020-02-03T13:54:47Z</time>
      </trkpt>
      <trkpt lat="44.4148" lon="1.39658">
        <ele>155.8137</ele>
        <time>2020-02-03T13:54:56Z</time>
      </trkpt>
      <trkpt lat="44.41482" lon="1.39669">
        <ele>153.81322666667</ele>
        <time>2020-02-03T13:55:08Z</time>
      </trkpt>
      <trkpt lat="44.41483" lon="1.39681">
        <ele>151.81277333333</ele>
        <time>2020-02-03T13:55:16Z</time>
      </trkpt>
      <trkpt lat="44.41484" lon="1.39692">
        <ele>153.31230666667</ele>
        <time>2020-02-03T13:55:24Z</time>
      </trkpt>
      <trkpt lat="44.41486" lon="1.39703">
        <ele>154.71186666667</ele>
        <time>2020-02-03T13:55:31Z</time>
      </trkpt>
      <trkpt lat="44.41489" lon="1.39714">
        <ele>154.91144666667</ele>
        <time>2020-02-03T13:55:38Z</time>
      </trkpt>
      <trkpt lat="44.41495" lon="1.39723">
        <ele>150.11107333333</ele>
        <time>2020-02-03T13:55:48Z</time>
      </trkpt>
      <trkpt lat="44.41499" lon="1.39732">
        <ele>150.01071333333</ele>
        <time>2020-02-03T13:55:56Z</time>
      </trkpt>
      <trkpt lat="44.41505" lon="1.39742">
        <ele>153.81034</ele>
        <time>2020-02-03T13:56:03Z</time>
      </trkpt>
      <trkpt lat="44.41512" lon="1.39749">
        <ele>156.01003333333</ele>
        <time>2020-02-03T13:56:14Z</time>
      </trkpt>
      <trkpt lat="44.41516" lon="1.39759">
        <ele>158.50962666667</ele>
        <time>2020-02-03T13:56:22Z</time>
      </trkpt>
      <trkpt lat="44.41518" lon="1.39771">
        <ele>160.20915333333</ele>
        <time>2020-02-03T13:56:28Z</time>
      </trkpt>
      <trkpt lat="44.41526" lon="1.39777">
        <ele>154.80894</ele>
        <time>2020-02-03T13:56:34Z</time>
      </trkpt>
      <trkpt lat="44.41534" lon="1.39783">
        <ele>148.70869333333</ele>
        <time>2020-02-03T13:56:46Z</time>
      </trkpt>
      <trkpt lat="44.41541" lon="1.39789">
        <ele>149.90843333333</ele>
        <time>2020-02-03T13:56:56Z</time>
      </trkpt>
      <trkpt lat="44.41548" lon="1.3979">
        <ele>145.50839333333</ele>
        <time>2020-02-03T13:57:03Z</time>
      </trkpt>
      <trkpt lat="44.41556" lon="1.39792">
        <ele>135.00834</ele>
        <time>2020-02-03T13:57:10Z</time>
      </trkpt>
      <trkpt lat="44.41565" lon="1.39792">
        <ele>107.90830666667</ele>
        <time>2020-02-03T13:57:30Z</time>
      </trkpt>
      <trkpt lat="44.41566" lon="1.39799">
        <ele>109.90802666667</ele>
        <time>2020-02-03T13:59:07Z</time>
      </trkpt>
      <trkpt lat="44.41562" lon="1.39813">
        <ele>131.20747333333</ele>
        <time>2020-02-03T13:59:11Z</time>
      </trkpt>
      <trkpt lat="44.41563" lon="1.39825">
        <ele>142.107</ele>
        <time>2020-02-03T13:59:30Z</time>
      </trkpt>
      <trkpt lat="44.41567" lon="1.39835">
        <ele>152.00659333333</ele>
        <time>2020-02-03T13:59:44Z</time>
      </trkpt>
      <trkpt lat="44.41571" lon="1.39847">
        <ele>156.80614</ele>
        <time>2020-02-03T13:59:53Z</time>
      </trkpt>
      <trkpt lat="44.41571" lon="1.39857">
        <ele>161.60573333333</ele>
        <time>2020-02-03T14:00:02Z</time>
      </trkpt>
      <trkpt lat="44.41571" lon="1.39867">
        <ele>159.50530666667</ele>
        <time>2020-02-03T14:00:07Z</time>
      </trkpt>
      <trkpt lat="44.41573" lon="1.39879">
        <ele>162.20485333333</ele>
        <time>2020-02-03T14:00:14Z</time>
      </trkpt>
      <trkpt lat="44.41574" lon="1.3989">
        <ele>164.50438666667</ele>
        <time>2020-02-03T14:00:20Z</time>
      </trkpt>
      <trkpt lat="44.41573" lon="1.39901">
        <ele>168.90397333333</ele>
        <time>2020-02-03T14:00:29Z</time>
      </trkpt>
      <trkpt lat="44.41573" lon="1.39913">
        <ele>170.40348666667</ele>
        <time>2020-02-03T14:00:38Z</time>
      </trkpt>
      <trkpt lat="44.41574" lon="1.39923">
        <ele>173.10308666667</ele>
        <time>2020-02-03T14:00:45Z</time>
      </trkpt>
      <trkpt lat="44.41573" lon="1.39936">
        <ele>169.70257333333</ele>
        <time>2020-02-03T14:00:50Z</time>
      </trkpt>
      <trkpt lat="44.41573" lon="1.39947">
        <ele>167.20212</ele>
        <time>2020-02-03T14:00:56Z</time>
      </trkpt>
      <trkpt lat="44.41571" lon="1.39959">
        <ele>164.80166</ele>
        <time>2020-02-03T14:01:05Z</time>
      </trkpt>
      <trkpt lat="44.41571" lon="1.3997">
        <ele>161.60118666667</ele>
        <time>2020-02-03T14:01:12Z</time>
      </trkpt>
      <trkpt lat="44.4157" lon="1.39983">
        <ele>159.9007</ele>
        <time>2020-02-03T14:01:19Z</time>
      </trkpt>
      <trkpt lat="44.41572" lon="1.39994">
        <ele>154.90022666667</ele>
        <time>2020-02-03T14:01:25Z</time>
      </trkpt>
      <trkpt lat="44.41569" lon="1.40006">
        <ele>153.09977333333</ele>
        <time>2020-02-03T14:01:33Z</time>
      </trkpt>
      <trkpt lat="44.41567" lon="1.40017">
        <ele>151.39933333333</ele>
        <time>2020-02-03T14:01:41Z</time>
      </trkpt>
      <trkpt lat="44.41563" lon="1.40028">
        <ele>149.69888666667</ele>
        <time>2020-02-03T14:01:50Z</time>
      </trkpt>
      <trkpt lat="44.41563" lon="1.4004">
        <ele>149.0984</ele>
        <time>2020-02-03T14:01:57Z</time>
      </trkpt>
      <trkpt lat="44.41561" lon="1.40051">
        <ele>151.39795333333</ele>
        <time>2020-02-03T14:02:06Z</time>
      </trkpt>
      <trkpt lat="44.41559" lon="1.40063">
        <ele>153.29748</ele>
        <time>2020-02-03T14:02:15Z</time>
      </trkpt>
      <trkpt lat="44.4156" lon="1.40074">
        <ele>152.79703333333</ele>
        <time>2020-02-03T14:02:21Z</time>
      </trkpt>
      <trkpt lat="44.4156" lon="1.40087">
        <ele>153.89653333333</ele>
        <time>2020-02-03T14:02:29Z</time>
      </trkpt>
      <trkpt lat="44.4156" lon="1.40098">
        <ele>155.49606666667</ele>
        <time>2020-02-03T14:02:38Z</time>
      </trkpt>
      <trkpt lat="44.41556" lon="1.4011">
        <ele>154.09560666667</ele>
        <time>2020-02-03T14:02:50Z</time>
      </trkpt>
      <trkpt lat="44.41558" lon="1.40121">
        <ele>156.79515333333</ele>
        <time>2020-02-03T14:02:58Z</time>
      </trkpt>
      <trkpt lat="44.4156" lon="1.40132">
        <ele>156.89471333333</ele>
        <time>2020-02-03T14:03:05Z</time>
      </trkpt>
      <trkpt lat="44.41559" lon="1.40144">
        <ele>159.09423333333</ele>
        <time>2020-02-03T14:03:13Z</time>
      </trkpt>
      <trkpt lat="44.4156" lon="1.40156">
        <ele>158.99374666667</ele>
        <time>2020-02-03T14:03:20Z</time>
      </trkpt>
      <trkpt lat="44.41561" lon="1.40168">
        <ele>159.19329333333</ele>
        <time>2020-02-03T14:03:28Z</time>
      </trkpt>
      <trkpt lat="44.41561" lon="1.40179">
        <ele>158.89285333333</ele>
        <time>2020-02-03T14:03:36Z</time>
      </trkpt>
      <trkpt lat="44.41564" lon="1.4019">
        <ele>160.39238666667</ele>
        <time>2020-02-03T14:03:45Z</time>
      </trkpt>
      <trkpt lat="44.41569" lon="1.402">
        <ele>159.292</ele>
        <time>2020-02-03T14:03:52Z</time>
      </trkpt>
      <trkpt lat="44.41571" lon="1.40211">
        <ele>158.89156666667</ele>
        <time>2020-02-03T14:04:01Z</time>
      </trkpt>
      <trkpt lat="44.41578" lon="1.40219">
        <ele>156.49125333333</ele>
        <time>2020-02-03T14:04:10Z</time>
      </trkpt>
      <trkpt lat="44.4158" lon="1.4023">
        <ele>155.99078666667</ele>
        <time>2020-02-03T14:04:17Z</time>
      </trkpt>
      <trkpt lat="44.41585" lon="1.4024">
        <ele>151.89041333333</ele>
        <time>2020-02-03T14:04:24Z</time>
      </trkpt>
      <trkpt lat="44.41588" lon="1.40251">
        <ele>148.78996666667</ele>
        <time>2020-02-03T14:04:31Z</time>
      </trkpt>
      <trkpt lat="44.41594" lon="1.4026">
        <ele>147.2896</ele>
        <time>2020-02-03T14:04:37Z</time>
      </trkpt>
      <trkpt lat="44.416" lon="1.40268">
        <ele>146.08929333333</ele>
        <time>2020-02-03T14:04:43Z</time>
      </trkpt>
      <trkpt lat="44.41607" lon="1.40274">
        <ele>145.88902666667</ele>
        <time>2020-02-03T14:04:50Z</time>
      </trkpt>
      <trkpt lat="44.41613" lon="1.40282">
        <ele>145.98874</ele>
        <time>2020-02-03T14:04:56Z</time>
      </trkpt>
      <trkpt lat="44.41617" lon="1.40291">
        <ele>149.28834666667</ele>
        <time>2020-02-03T14:05:04Z</time>
      </trkpt>
      <trkpt lat="44.4162" lon="1.40301">
        <ele>147.98796</ele>
        <time>2020-02-03T14:05:10Z</time>
      </trkpt>
      <trkpt lat="44.41623" lon="1.40311">
        <ele>146.88756</ele>
        <time>2020-02-03T14:05:16Z</time>
      </trkpt>
      <trkpt lat="44.41627" lon="1.40321">
        <ele>144.38716666667</ele>
        <time>2020-02-03T14:05:27Z</time>
      </trkpt>
      <trkpt lat="44.41633" lon="1.40331">
        <ele>145.18677333333</ele>
        <time>2020-02-03T14:05:38Z</time>
      </trkpt>
      <trkpt lat="44.41631" lon="1.40342">
        <ele>146.58632</ele>
        <time>2020-02-03T14:05:45Z</time>
      </trkpt>
      <trkpt lat="44.41636" lon="1.40353">
        <ele>147.38589333333</ele>
        <time>2020-02-03T14:05:52Z</time>
      </trkpt>
      <trkpt lat="44.41639" lon="1.40364">
        <ele>148.48544666667</ele>
        <time>2020-02-03T14:05:58Z</time>
      </trkpt>
      <trkpt lat="44.41641" lon="1.40376">
        <ele>148.28498</ele>
        <time>2020-02-03T14:06:03Z</time>
      </trkpt>
      <trkpt lat="44.41644" lon="1.40387">
        <ele>147.48452666667</ele>
        <time>2020-02-03T14:06:08Z</time>
      </trkpt>
      <trkpt lat="44.41645" lon="1.40394">
        <ele>144.38422666667</ele>
        <time>2020-02-03T14:06:27Z</time>
      </trkpt>
      <trkpt lat="44.41649" lon="1.40405">
        <ele>142.48382</ele>
        <time>2020-02-03T14:06:33Z</time>
      </trkpt>
      <trkpt lat="44.41651" lon="1.40416">
        <ele>143.38336</ele>
        <time>2020-02-03T14:06:42Z</time>
      </trkpt>
      <trkpt lat="44.41653" lon="1.40427">
        <ele>142.78291333333</ele>
        <time>2020-02-03T14:06:49Z</time>
      </trkpt>
      <trkpt lat="44.41654" lon="1.40438">
        <ele>146.88248</ele>
        <time>2020-02-03T14:06:56Z</time>
      </trkpt>
      <trkpt lat="44.41656" lon="1.4045">
        <ele>147.68199333333</ele>
        <time>2020-02-03T14:07:02Z</time>
      </trkpt>
      <trkpt lat="44.41657" lon="1.40461">
        <ele>146.78154666667</ele>
        <time>2020-02-03T14:07:14Z</time>
      </trkpt>
      <trkpt lat="44.41659" lon="1.40472">
        <ele>147.78112666667</ele>
        <time>2020-02-03T14:07:20Z</time>
      </trkpt>
      <trkpt lat="44.41663" lon="1.40483">
        <ele>147.5807</ele>
        <time>2020-02-03T14:07:27Z</time>
      </trkpt>
      <trkpt lat="44.41665" lon="1.40494">
        <ele>145.68023333333</ele>
        <time>2020-02-03T14:07:33Z</time>
      </trkpt>
      <trkpt lat="44.41666" lon="1.40506">
        <ele>144.17978</ele>
        <time>2020-02-03T14:07:40Z</time>
      </trkpt>
      <trkpt lat="44.41669" lon="1.40517">
        <ele>143.77931333333</ele>
        <time>2020-02-03T14:07:48Z</time>
      </trkpt>
      <trkpt lat="44.4167" lon="1.40529">
        <ele>144.17884</ele>
        <time>2020-02-03T14:07:55Z</time>
      </trkpt>
      <trkpt lat="44.41675" lon="1.40539">
        <ele>143.57846</ele>
        <time>2020-02-03T14:08:02Z</time>
      </trkpt>
      <trkpt lat="44.41679" lon="1.40548">
        <ele>145.3781</ele>
        <time>2020-02-03T14:08:08Z</time>
      </trkpt>
      <trkpt lat="44.4168" lon="1.40558">
        <ele>145.87767333333</ele>
        <time>2020-02-03T14:08:15Z</time>
      </trkpt>
      <trkpt lat="44.41683" lon="1.40569">
        <ele>145.37723333333</ele>
        <time>2020-02-03T14:08:21Z</time>
      </trkpt>
      <trkpt lat="44.41687" lon="1.40579">
        <ele>144.97682666667</ele>
        <time>2020-02-03T14:08:29Z</time>
      </trkpt>
      <trkpt lat="44.41693" lon="1.40588">
        <ele>143.97647333333</ele>
        <time>2020-02-03T14:08:36Z</time>
      </trkpt>
      <trkpt lat="44.41696" lon="1.40599">
        <ele>143.87603333333</ele>
        <time>2020-02-03T14:08:43Z</time>
      </trkpt>
      <trkpt lat="44.417" lon="1.4061">
        <ele>145.07560666667</ele>
        <time>2020-02-03T14:08:49Z</time>
      </trkpt>
      <trkpt lat="44.41703" lon="1.4062">
        <ele>146.17521333333</ele>
        <time>2020-02-03T14:08:54Z</time>
      </trkpt>
      <trkpt lat="44.41708" lon="1.4063">
        <ele>147.1748</ele>
        <time>2020-02-03T14:09:02Z</time>
      </trkpt>
      <trkpt lat="44.41707" lon="1.40641">
        <ele>144.37436666667</ele>
        <time>2020-02-03T14:09:07Z</time>
      </trkpt>
      <trkpt lat="44.41711" lon="1.4065">
        <ele>144.37398666667</ele>
        <time>2020-02-03T14:09:13Z</time>
      </trkpt>
      <trkpt lat="44.41715" lon="1.40661">
        <ele>142.77357333333</ele>
        <time>2020-02-03T14:09:19Z</time>
      </trkpt>
      <trkpt lat="44.41719" lon="1.40671">
        <ele>143.77316</ele>
        <time>2020-02-03T14:09:27Z</time>
      </trkpt>
      <trkpt lat="44.41723" lon="1.40682">
        <ele>142.77272666667</ele>
        <time>2020-02-03T14:09:32Z</time>
      </trkpt>
      <trkpt lat="44.41728" lon="1.40691">
        <ele>142.27237333333</ele>
        <time>2020-02-03T14:09:38Z</time>
      </trkpt>
      <trkpt lat="44.41733" lon="1.407">
        <ele>143.17199333333</ele>
        <time>2020-02-03T14:09:46Z</time>
      </trkpt>
      <trkpt lat="44.41739" lon="1.40708">
        <ele>146.27166666667</ele>
        <time>2020-02-03T14:09:56Z</time>
      </trkpt>
      <trkpt lat="44.41744" lon="1.40716">
        <ele>144.87136666667</ele>
        <time>2020-02-03T14:10:01Z</time>
      </trkpt>
      <trkpt lat="44.4175" lon="1.40726">
        <ele>143.07098</ele>
        <time>2020-02-03T14:10:07Z</time>
      </trkpt>
      <trkpt lat="44.41754" lon="1.40737">
        <ele>141.87054</ele>
        <time>2020-02-03T14:10:12Z</time>
      </trkpt>
      <trkpt lat="44.41758" lon="1.40746">
        <ele>140.97014666667</ele>
        <time>2020-02-03T14:10:17Z</time>
      </trkpt>
      <trkpt lat="44.41762" lon="1.40756">
        <ele>137.86978</ele>
        <time>2020-02-03T14:10:22Z</time>
      </trkpt>
      <trkpt lat="44.41765" lon="1.40765">
        <ele>133.96939333333</ele>
        <time>2020-02-03T14:10:27Z</time>
      </trkpt>
      <trkpt lat="44.41769" lon="1.40775">
        <ele>131.56899333333</ele>
        <time>2020-02-03T14:10:33Z</time>
      </trkpt>
      <trkpt lat="44.41776" lon="1.40782">
        <ele>131.36871333333</ele>
        <time>2020-02-03T14:10:44Z</time>
      </trkpt>
      <trkpt lat="44.4178" lon="1.40793">
        <ele>132.66828666667</ele>
        <time>2020-02-03T14:10:54Z</time>
      </trkpt>
      <trkpt lat="44.41786" lon="1.40802">
        <ele>138.06793333333</ele>
        <time>2020-02-03T14:12:09Z</time>
      </trkpt>
      <trkpt lat="44.41791" lon="1.40808">
        <ele>141.96768</ele>
        <time>2020-02-03T14:12:16Z</time>
      </trkpt>
      <trkpt lat="44.41797" lon="1.40817">
        <ele>138.56732666667</ele>
        <time>2020-02-03T14:12:22Z</time>
      </trkpt>
      <trkpt lat="44.41804" lon="1.40824">
        <ele>136.16704</ele>
        <time>2020-02-03T14:12:29Z</time>
      </trkpt>
      <trkpt lat="44.41811" lon="1.40831">
        <ele>133.86674666667</ele>
        <time>2020-02-03T14:12:36Z</time>
      </trkpt>
      <trkpt lat="44.41815" lon="1.40842">
        <ele>135.46633333333</ele>
        <time>2020-02-03T14:12:44Z</time>
      </trkpt>
      <trkpt lat="44.41819" lon="1.40851">
        <ele>139.06596666667</ele>
        <time>2020-02-03T14:12:52Z</time>
      </trkpt>
      <trkpt lat="44.41824" lon="1.40859">
        <ele>142.56563333333</ele>
        <time>2020-02-03T14:13:01Z</time>
      </trkpt>
      <trkpt lat="44.41831" lon="1.40866">
        <ele>143.26536666667</ele>
        <time>2020-02-03T14:13:10Z</time>
      </trkpt>
      <trkpt lat="44.41834" lon="1.40878">
        <ele>142.96488666667</ele>
        <time>2020-02-03T14:13:17Z</time>
      </trkpt>
      <trkpt lat="44.4184" lon="1.40887">
        <ele>140.86452</ele>
        <time>2020-02-03T14:13:23Z</time>
      </trkpt>
      <trkpt lat="44.41842" lon="1.40899">
        <ele>141.76406</ele>
        <time>2020-02-03T14:13:29Z</time>
      </trkpt>
      <trkpt lat="44.41843" lon="1.40909">
        <ele>137.36363333333</ele>
        <time>2020-02-03T14:13:33Z</time>
      </trkpt>
      <trkpt lat="44.41848" lon="1.40919">
        <ele>131.26323333333</ele>
        <time>2020-02-03T14:13:39Z</time>
      </trkpt>
      <trkpt lat="44.41852" lon="1.40929">
        <ele>134.16282666667</ele>
        <time>2020-02-03T14:13:47Z</time>
      </trkpt>
      <trkpt lat="44.41856" lon="1.4094">
        <ele>135.3624</ele>
        <time>2020-02-03T14:13:56Z</time>
      </trkpt>
      <trkpt lat="44.41861" lon="1.4095">
        <ele>134.86201333333</ele>
        <time>2020-02-03T14:14:07Z</time>
      </trkpt>
      <trkpt lat="44.41867" lon="1.40958">
        <ele>133.76169333333</ele>
        <time>2020-02-03T14:14:13Z</time>
      </trkpt>
      <trkpt lat="44.41874" lon="1.40964">
        <ele>134.46142666667</ele>
        <time>2020-02-03T14:14:21Z</time>
      </trkpt>
      <trkpt lat="44.41881" lon="1.40971">
        <ele>137.06115333333</ele>
        <time>2020-02-03T14:14:29Z</time>
      </trkpt>
      <trkpt lat="44.41889" lon="1.40975">
        <ele>137.36099333333</ele>
        <time>2020-02-03T14:14:36Z</time>
      </trkpt>
      <trkpt lat="44.41897" lon="1.4098">
        <ele>138.96079333333</ele>
        <time>2020-02-03T14:14:46Z</time>
      </trkpt>
      <trkpt lat="44.41905" lon="1.40984">
        <ele>141.66062666667</ele>
        <time>2020-02-03T14:14:55Z</time>
      </trkpt>
      <trkpt lat="44.41913" lon="1.40988">
        <ele>143.06046666667</ele>
        <time>2020-02-03T14:15:03Z</time>
      </trkpt>
      <trkpt lat="44.41922" lon="1.40989">
        <ele>143.16045333333</ele>
        <time>2020-02-03T14:15:12Z</time>
      </trkpt>
      <trkpt lat="44.4193" lon="1.40991">
        <ele>144.06035333333</ele>
        <time>2020-02-03T14:15:19Z</time>
      </trkpt>
      <trkpt lat="44.41937" lon="1.40997">
        <ele>143.86012666667</ele>
        <time>2020-02-03T14:15:27Z</time>
      </trkpt>
      <trkpt lat="44.41944" lon="1.41002">
        <ele>141.25990666667</ele>
        <time>2020-02-03T14:15:32Z</time>
      </trkpt>
      <trkpt lat="44.41951" lon="1.4101">
        <ele>138.55961333333</ele>
        <time>2020-02-03T14:15:39Z</time>
      </trkpt>
      <trkpt lat="44.41957" lon="1.41017">
        <ele>137.05930666667</ele>
        <time>2020-02-03T14:15:45Z</time>
      </trkpt>
      <trkpt lat="44.41965" lon="1.41023">
        <ele>132.75906666667</ele>
        <time>2020-02-03T14:15:53Z</time>
      </trkpt>
      <trkpt lat="44.41973" lon="1.41027">
        <ele>127.15892</ele>
        <time>2020-02-03T14:16:00Z</time>
      </trkpt>
      <trkpt lat="44.4198" lon="1.41034">
        <ele>123.75862666667</ele>
        <time>2020-02-03T14:16:07Z</time>
      </trkpt>
      <trkpt lat="44.41985" lon="1.41042">
        <ele>120.55832</ele>
        <time>2020-02-03T14:16:13Z</time>
      </trkpt>
      <trkpt lat="44.41988" lon="1.41055">
        <ele>118.05778666667</ele>
        <time>2020-02-03T14:16:18Z</time>
      </trkpt>
      <trkpt lat="44.4199" lon="1.41068">
        <ele>116.35729333333</ele>
        <time>2020-02-03T14:16:24Z</time>
      </trkpt>
      <trkpt lat="44.41989" lon="1.41078">
        <ele>117.15686666667</ele>
        <time>2020-02-03T14:16:30Z</time>
      </trkpt>
      <trkpt lat="44.41989" lon="1.4109">
        <ele>115.6564</ele>
        <time>2020-02-03T14:16:36Z</time>
      </trkpt>
      <trkpt lat="44.4199" lon="1.41102">
        <ele>115.55594</ele>
        <time>2020-02-03T14:16:44Z</time>
      </trkpt>
      <trkpt lat="44.41989" lon="1.41113">
        <ele>119.75547333333</ele>
        <time>2020-02-03T14:16:52Z</time>
      </trkpt>
      <trkpt lat="44.41992" lon="1.41124">
        <ele>122.75502666667</ele>
        <time>2020-02-03T14:17:02Z</time>
      </trkpt>
      <trkpt lat="44.41995" lon="1.41136">
        <ele>127.25455333333</ele>
        <time>2020-02-03T14:17:11Z</time>
      </trkpt>
      <trkpt lat="44.41997" lon="1.41148">
        <ele>132.35408666667</ele>
        <time>2020-02-03T14:17:21Z</time>
      </trkpt>
      <trkpt lat="44.42002" lon="1.41157">
        <ele>135.15371333333</ele>
        <time>2020-02-03T14:17:29Z</time>
      </trkpt>
      <trkpt lat="44.42004" lon="1.41168">
        <ele>136.15329333333</ele>
        <time>2020-02-03T14:17:35Z</time>
      </trkpt>
      <trkpt lat="44.42009" lon="1.41178">
        <ele>134.95287333333</ele>
        <time>2020-02-03T14:17:41Z</time>
      </trkpt>
      <trkpt lat="44.42011" lon="1.41189">
        <ele>135.35242666667</ele>
        <time>2020-02-03T14:17:46Z</time>
      </trkpt>
      <trkpt lat="44.42015" lon="1.412">
        <ele>133.752</ele>
        <time>2020-02-03T14:17:52Z</time>
      </trkpt>
      <trkpt lat="44.4202" lon="1.4121">
        <ele>132.95161333333</ele>
        <time>2020-02-03T14:17:58Z</time>
      </trkpt>
      <trkpt lat="44.42023" lon="1.41221">
        <ele>129.05116</ele>
        <time>2020-02-03T14:18:04Z</time>
      </trkpt>
      <trkpt lat="44.42027" lon="1.41232">
        <ele>126.05071333333</ele>
        <time>2020-02-03T14:18:11Z</time>
      </trkpt>
      <trkpt lat="44.42033" lon="1.41241">
        <ele>129.05036666667</ele>
        <time>2020-02-03T14:18:19Z</time>
      </trkpt>
      <trkpt lat="44.42039" lon="1.4125">
        <ele>126.84999333333</ele>
        <time>2020-02-03T14:18:25Z</time>
      </trkpt>
      <trkpt lat="44.42044" lon="1.41259">
        <ele>124.94965333333</ele>
        <time>2020-02-03T14:18:30Z</time>
      </trkpt>
      <trkpt lat="44.4205" lon="1.41269">
        <ele>124.54926</ele>
        <time>2020-02-03T14:18:38Z</time>
      </trkpt>
      <trkpt lat="44.42057" lon="1.41273">
        <ele>128.34908666667</ele>
        <time>2020-02-03T14:18:48Z</time>
      </trkpt>
      <trkpt lat="44.42059" lon="1.41284">
        <ele>125.34865333333</ele>
        <time>2020-02-03T14:18:53Z</time>
      </trkpt>
      <trkpt lat="44.4206" lon="1.41299">
        <ele>123.24804</ele>
        <time>2020-02-03T14:18:58Z</time>
      </trkpt>
      <trkpt lat="44.42065" lon="1.41309">
        <ele>126.34764</ele>
        <time>2020-02-03T14:19:06Z</time>
      </trkpt>
      <trkpt lat="44.42071" lon="1.41317">
        <ele>130.64734</ele>
        <time>2020-02-03T14:19:15Z</time>
      </trkpt>
      <trkpt lat="44.42077" lon="1.41325">
        <ele>128.94702</ele>
        <time>2020-02-03T14:19:21Z</time>
      </trkpt>
      <trkpt lat="44.42082" lon="1.41334">
        <ele>126.64666</ele>
        <time>2020-02-03T14:19:27Z</time>
      </trkpt>
      <trkpt lat="44.42088" lon="1.41342">
        <ele>124.54633333333</ele>
        <time>2020-02-03T14:19:34Z</time>
      </trkpt>
      <trkpt lat="44.42093" lon="1.41352">
        <ele>122.14591333333</ele>
        <time>2020-02-03T14:19:41Z</time>
      </trkpt>
      <trkpt lat="44.421" lon="1.41361">
        <ele>120.54558</ele>
        <time>2020-02-03T14:19:49Z</time>
      </trkpt>
      <trkpt lat="44.42105" lon="1.41369">
        <ele>121.54526</ele>
        <time>2020-02-03T14:19:58Z</time>
      </trkpt>
      <trkpt lat="44.4211" lon="1.41378">
        <ele>121.04488</ele>
        <time>2020-02-03T14:20:04Z</time>
      </trkpt>
      <trkpt lat="44.42116" lon="1.41387">
        <ele>123.54452666667</ele>
        <time>2020-02-03T14:20:13Z</time>
      </trkpt>
      <trkpt lat="44.42122" lon="1.41396">
        <ele>122.04418</ele>
        <time>2020-02-03T14:20:20Z</time>
      </trkpt>
      <trkpt lat="44.42129" lon="1.41403">
        <ele>122.64388666667</ele>
        <time>2020-02-03T14:20:28Z</time>
      </trkpt>
      <trkpt lat="44.42135" lon="1.41412">
        <ele>120.84354</ele>
        <time>2020-02-03T14:20:35Z</time>
      </trkpt>
      <trkpt lat="44.42139" lon="1.41422">
        <ele>115.54311333333</ele>
        <time>2020-02-03T14:20:40Z</time>
      </trkpt>
      <trkpt lat="44.42145" lon="1.4143">
        <ele>112.54279333333</ele>
        <time>2020-02-03T14:20:51Z</time>
      </trkpt>
      <trkpt lat="44.42146" lon="1.4144">
        <ele>107.34238666667</ele>
        <time>2020-02-03T14:24:26Z</time>
      </trkpt>
      <trkpt lat="44.42154" lon="1.41445">
        <ele>109.44220666667</ele>
        <time>2020-02-03T14:24:32Z</time>
      </trkpt>
      <trkpt lat="44.42161" lon="1.41453">
        <ele>111.54188</ele>
        <time>2020-02-03T14:24:43Z</time>
      </trkpt>
      <trkpt lat="44.42167" lon="1.4146">
        <ele>111.44159333333</ele>
        <time>2020-02-03T14:24:50Z</time>
      </trkpt>
      <trkpt lat="44.42174" lon="1.41467">
        <ele>111.04132666667</ele>
        <time>2020-02-03T14:24:56Z</time>
      </trkpt>
      <trkpt lat="44.42181" lon="1.41474">
        <ele>112.64104666667</ele>
        <time>2020-02-03T14:25:02Z</time>
      </trkpt>
      <trkpt lat="44.42188" lon="1.41481">
        <ele>113.74078</ele>
        <time>2020-02-03T14:25:11Z</time>
      </trkpt>
      <trkpt lat="44.42193" lon="1.41488">
        <ele>115.54048</ele>
        <time>2020-02-03T14:25:18Z</time>
      </trkpt>
      <trkpt lat="44.422" lon="1.41495">
        <ele>115.24019333333</ele>
        <time>2020-02-03T14:25:24Z</time>
      </trkpt>
      <trkpt lat="44.42207" lon="1.41502">
        <ele>113.43992</ele>
        <time>2020-02-03T14:25:29Z</time>
      </trkpt>
      <trkpt lat="44.42214" lon="1.41503">
        <ele>114.33987333333</ele>
        <time>2020-02-03T14:25:37Z</time>
      </trkpt>
      <trkpt lat="44.42223" lon="1.41515">
        <ele>115.0394</ele>
        <time>2020-02-03T14:25:41Z</time>
      </trkpt>
      <trkpt lat="44.4223" lon="1.41521">
        <ele>112.63914666667</ele>
        <time>2020-02-03T14:25:48Z</time>
      </trkpt>
      <trkpt lat="44.42236" lon="1.4153">
        <ele>101.83880666667</ele>
        <time>2020-02-03T14:25:55Z</time>
      </trkpt>
      <trkpt lat="44.42244" lon="1.41533">
        <ele>102.03867333333</ele>
        <time>2020-02-03T14:26:02Z</time>
      </trkpt>
      <trkpt lat="44.42251" lon="1.41539">
        <ele>103.33845333333</ele>
        <time>2020-02-03T14:26:08Z</time>
      </trkpt>
      <trkpt lat="44.42259" lon="1.41546">
        <ele>105.13818</ele>
        <time>2020-02-03T14:26:16Z</time>
      </trkpt>
      <trkpt lat="44.42266" lon="1.41553">
        <ele>106.03786666667</ele>
        <time>2020-02-03T14:26:25Z</time>
      </trkpt>
      <trkpt lat="44.42272" lon="1.41561">
        <ele>103.73754666667</ele>
        <time>2020-02-03T14:26:33Z</time>
      </trkpt>
      <trkpt lat="44.42278" lon="1.41569">
        <ele>105.13724666667</ele>
        <time>2020-02-03T14:26:40Z</time>
      </trkpt>
      <trkpt lat="44.42284" lon="1.41577">
        <ele>106.23691333333</ele>
        <time>2020-02-03T14:26:45Z</time>
      </trkpt>
      <trkpt lat="44.42291" lon="1.41583">
        <ele>107.63668</ele>
        <time>2020-02-03T14:26:50Z</time>
      </trkpt>
      <trkpt lat="44.42295" lon="1.41593">
        <ele>102.03626666667</ele>
        <time>2020-02-03T14:26:56Z</time>
      </trkpt>
      <trkpt lat="44.42302" lon="1.41602">
        <ele>104.53591333333</ele>
        <time>2020-02-03T14:27:03Z</time>
      </trkpt>
      <trkpt lat="44.42308" lon="1.41611">
        <ele>105.43557333333</ele>
        <time>2020-02-03T14:27:10Z</time>
      </trkpt>
      <trkpt lat="44.42314" lon="1.4162">
        <ele>108.23522</ele>
        <time>2020-02-03T14:27:18Z</time>
      </trkpt>
      <trkpt lat="44.42313" lon="1.41632">
        <ele>110.73472666667</ele>
        <time>2020-02-03T14:27:28Z</time>
      </trkpt>
      <trkpt lat="44.42306" lon="1.41638">
        <ele>112.7345</ele>
        <time>2020-02-03T14:27:36Z</time>
      </trkpt>
      <trkpt lat="44.42297" lon="1.41641">
        <ele>111.03438</ele>
        <time>2020-02-03T14:27:41Z</time>
      </trkpt>
      <trkpt lat="44.4229" lon="1.41646">
        <ele>112.13416</ele>
        <time>2020-02-03T14:27:49Z</time>
      </trkpt>
      <trkpt lat="44.42282" lon="1.41649">
        <ele>113.63403333333</ele>
        <time>2020-02-03T14:28:00Z</time>
      </trkpt>
      <trkpt lat="44.42273" lon="1.41651">
        <ele>112.83396666667</ele>
        <time>2020-02-03T14:28:11Z</time>
      </trkpt>
      <trkpt lat="44.42265" lon="1.41649">
        <ele>112.23403333333</ele>
        <time>2020-02-03T14:28:18Z</time>
      </trkpt>
      <trkpt lat="44.42257" lon="1.41653">
        <ele>114.83388666667</ele>
        <time>2020-02-03T14:28:30Z</time>
      </trkpt>
      <trkpt lat="44.4225" lon="1.41657">
        <ele>117.33372666667</ele>
        <time>2020-02-03T14:28:37Z</time>
      </trkpt>
      <trkpt lat="44.42242" lon="1.4166">
        <ele>120.53359333333</ele>
        <time>2020-02-03T14:28:45Z</time>
      </trkpt>
      <trkpt lat="44.42233" lon="1.41663">
        <ele>122.23348</ele>
        <time>2020-02-03T14:28:53Z</time>
      </trkpt>
      <trkpt lat="44.42225" lon="1.41664">
        <ele>122.03345333333</ele>
        <time>2020-02-03T14:29:01Z</time>
      </trkpt>
      <trkpt lat="44.42217" lon="1.4167">
        <ele>122.63321333333</ele>
        <time>2020-02-03T14:29:07Z</time>
      </trkpt>
      <trkpt lat="44.42209" lon="1.4167">
        <ele>121.83321333333</ele>
        <time>2020-02-03T14:29:15Z</time>
      </trkpt>
      <trkpt lat="44.42201" lon="1.41674">
        <ele>121.93302666667</ele>
        <time>2020-02-03T14:29:25Z</time>
      </trkpt>
      <trkpt lat="44.42193" lon="1.41677">
        <ele>122.53292666667</ele>
        <time>2020-02-03T14:29:33Z</time>
      </trkpt>
      <trkpt lat="44.42185" lon="1.41679">
        <ele>123.83282666667</ele>
        <time>2020-02-03T14:29:40Z</time>
      </trkpt>
      <trkpt lat="44.42177" lon="1.41683">
        <ele>124.53268666667</ele>
        <time>2020-02-03T14:29:49Z</time>
      </trkpt>
      <trkpt lat="44.42169" lon="1.41688">
        <ele>125.83249333333</ele>
        <time>2020-02-03T14:29:58Z</time>
      </trkpt>
      <trkpt lat="44.42161" lon="1.41691">
        <ele>129.43234666667</ele>
        <time>2020-02-03T14:30:08Z</time>
      </trkpt>
      <trkpt lat="44.42152" lon="1.41695">
        <ele>132.93220666667</ele>
        <time>2020-02-03T14:30:17Z</time>
      </trkpt>
      <trkpt lat="44.42144" lon="1.417">
        <ele>135.03202</ele>
        <time>2020-02-03T14:30:25Z</time>
      </trkpt>
      <trkpt lat="44.42136" lon="1.41705">
        <ele>134.03181333333</ele>
        <time>2020-02-03T14:30:33Z</time>
      </trkpt>
      <trkpt lat="44.42129" lon="1.41711">
        <ele>134.23156</ele>
        <time>2020-02-03T14:30:42Z</time>
      </trkpt>
      <trkpt lat="44.42122" lon="1.41718">
        <ele>136.53127333333</ele>
        <time>2020-02-03T14:30:51Z</time>
      </trkpt>
      <trkpt lat="44.42116" lon="1.41724">
        <ele>136.93104666667</ele>
        <time>2020-02-03T14:30:59Z</time>
      </trkpt>
      <trkpt lat="44.42109" lon="1.4173">
        <ele>136.63079333333</ele>
        <time>2020-02-03T14:31:09Z</time>
      </trkpt>
      <trkpt lat="44.42101" lon="1.41736">
        <ele>135.33055333333</ele>
        <time>2020-02-03T14:31:17Z</time>
      </trkpt>
      <trkpt lat="44.42093" lon="1.41742">
        <ele>133.43032</ele>
        <time>2020-02-03T14:31:26Z</time>
      </trkpt>
      <trkpt lat="44.42087" lon="1.4175">
        <ele>132.03001333333</ele>
        <time>2020-02-03T14:31:35Z</time>
      </trkpt>
      <trkpt lat="44.42081" lon="1.41758">
        <ele>130.62967333333</ele>
        <time>2020-02-03T14:31:43Z</time>
      </trkpt>
      <trkpt lat="44.42075" lon="1.41767">
        <ele>132.52934</ele>
        <time>2020-02-03T14:31:52Z</time>
      </trkpt>
      <trkpt lat="44.42068" lon="1.41775">
        <ele>134.429</ele>
        <time>2020-02-03T14:32:03Z</time>
      </trkpt>
      <trkpt lat="44.42062" lon="1.41783">
        <ele>136.62867333333</ele>
        <time>2020-02-03T14:32:13Z</time>
      </trkpt>
      <trkpt lat="44.42058" lon="1.41792">
        <ele>143.12834</ele>
        <time>2020-02-03T14:32:26Z</time>
      </trkpt>
      <trkpt lat="44.42052" lon="1.418">
        <ele>140.32801333333</ele>
        <time>2020-02-03T14:32:31Z</time>
      </trkpt>
      <trkpt lat="44.42046" lon="1.41808">
        <ele>141.42768</ele>
        <time>2020-02-03T14:32:37Z</time>
      </trkpt>
      <trkpt lat="44.42044" lon="1.4182">
        <ele>142.82719333333</ele>
        <time>2020-02-03T14:32:45Z</time>
      </trkpt>
      <trkpt lat="44.42037" lon="1.41825">
        <ele>146.22698666667</ele>
        <time>2020-02-03T14:33:00Z</time>
      </trkpt>
      <trkpt lat="44.42029" lon="1.41833">
        <ele>144.82669333333</ele>
        <time>2020-02-03T14:33:08Z</time>
      </trkpt>
      <trkpt lat="44.42022" lon="1.41841">
        <ele>151.52638</ele>
        <time>2020-02-03T14:33:23Z</time>
      </trkpt>
      <trkpt lat="44.42016" lon="1.41848">
        <ele>154.8261</ele>
        <time>2020-02-03T14:33:32Z</time>
      </trkpt>
      <trkpt lat="44.42009" lon="1.41855">
        <ele>156.1258</ele>
        <time>2020-02-03T14:33:41Z</time>
      </trkpt>
      <trkpt lat="44.42003" lon="1.41863">
        <ele>154.72548666667</ele>
        <time>2020-02-03T14:33:48Z</time>
      </trkpt>
      <trkpt lat="44.41997" lon="1.4187">
        <ele>155.62521333333</ele>
        <time>2020-02-03T14:33:56Z</time>
      </trkpt>
      <trkpt lat="44.41989" lon="1.41875">
        <ele>161.225</ele>
        <time>2020-02-03T14:34:06Z</time>
      </trkpt>
      <trkpt lat="44.41983" lon="1.41883">
        <ele>166.22468666667</ele>
        <time>2020-02-03T14:34:17Z</time>
      </trkpt>
      <trkpt lat="44.41976" lon="1.4189">
        <ele>164.12442</ele>
        <time>2020-02-03T14:34:23Z</time>
      </trkpt>
      <trkpt lat="44.41969" lon="1.41898">
        <ele>165.42408</ele>
        <time>2020-02-03T14:34:34Z</time>
      </trkpt>
      <trkpt lat="44.41963" lon="1.41907">
        <ele>168.02374</ele>
        <time>2020-02-03T14:34:47Z</time>
      </trkpt>
      <trkpt lat="44.41955" lon="1.41911">
        <ele>170.72356666667</ele>
        <time>2020-02-03T14:34:58Z</time>
      </trkpt>
      <trkpt lat="44.41946" lon="1.41913">
        <ele>168.92349333333</ele>
        <time>2020-02-03T14:35:07Z</time>
      </trkpt>
      <trkpt lat="44.41938" lon="1.41912">
        <ele>169.22350666667</ele>
        <time>2020-02-03T14:35:16Z</time>
      </trkpt>
      <trkpt lat="44.41932" lon="1.41915">
        <ele>169.92338666667</ele>
        <time>2020-02-03T14:35:21Z</time>
      </trkpt>
      <trkpt lat="44.41924" lon="1.41918">
        <ele>169.22329333333</ele>
        <time>2020-02-03T14:35:26Z</time>
      </trkpt>
      <trkpt lat="44.41915" lon="1.41916">
        <ele>171.42338</ele>
        <time>2020-02-03T14:35:36Z</time>
      </trkpt>
      <trkpt lat="44.41907" lon="1.41913">
        <ele>172.6235</ele>
        <time>2020-02-03T14:35:46Z</time>
      </trkpt>
      <trkpt lat="44.419" lon="1.41909">
        <ele>173.12363333333</ele>
        <time>2020-02-03T14:35:51Z</time>
      </trkpt>
      <trkpt lat="44.41892" lon="1.41907">
        <ele>172.12371333333</ele>
        <time>2020-02-03T14:35:55Z</time>
      </trkpt>
      <trkpt lat="44.41884" lon="1.41905">
        <ele>172.32381333333</ele>
        <time>2020-02-03T14:36:02Z</time>
      </trkpt>
      <trkpt lat="44.41876" lon="1.41903">
        <ele>168.32387333333</ele>
        <time>2020-02-03T14:36:11Z</time>
      </trkpt>
      <trkpt lat="44.41867" lon="1.41901">
        <ele>164.02398</ele>
        <time>2020-02-03T14:36:23Z</time>
      </trkpt>
      <trkpt lat="44.4186" lon="1.41895">
        <ele>166.42422</ele>
        <time>2020-02-03T14:40:45Z</time>
      </trkpt>
      <trkpt lat="44.41851" lon="1.4189">
        <ele>169.12439333333</ele>
        <time>2020-02-03T14:41:06Z</time>
      </trkpt>
      <trkpt lat="44.41843" lon="1.41891">
        <ele>163.42435333333</ele>
        <time>2020-02-03T14:41:12Z</time>
      </trkpt>
      <trkpt lat="44.41835" lon="1.4189">
        <ele>162.52441333333</ele>
        <time>2020-02-03T14:41:20Z</time>
      </trkpt>
      <trkpt lat="44.41827" lon="1.41888">
        <ele>163.1245</ele>
        <time>2020-02-03T14:41:27Z</time>
      </trkpt>
      <trkpt lat="44.41819" lon="1.41884">
        <ele>162.22462666667</ele>
        <time>2020-02-03T14:41:33Z</time>
      </trkpt>
      <trkpt lat="44.41811" lon="1.41884">
        <ele>160.12464666667</ele>
        <time>2020-02-03T14:41:40Z</time>
      </trkpt>
      <trkpt lat="44.41802" lon="1.41882">
        <ele>160.92470666667</ele>
        <time>2020-02-03T14:41:56Z</time>
      </trkpt>
      <trkpt lat="44.41794" lon="1.41879">
        <ele>164.92482666667</ele>
        <time>2020-02-03T14:42:06Z</time>
      </trkpt>
      <trkpt lat="44.41785" lon="1.4188">
        <ele>166.92480666667</ele>
        <time>2020-02-03T14:42:13Z</time>
      </trkpt>
      <trkpt lat="44.41776" lon="1.41879">
        <ele>172.12486</ele>
        <time>2020-02-03T14:42:21Z</time>
      </trkpt>
      <trkpt lat="44.41768" lon="1.41877">
        <ele>174.62494</ele>
        <time>2020-02-03T14:42:29Z</time>
      </trkpt>
      <trkpt lat="44.4176" lon="1.41873">
        <ele>176.52507333333</ele>
        <time>2020-02-03T14:42:37Z</time>
      </trkpt>
      <trkpt lat="44.41752" lon="1.41871">
        <ele>177.32517333333</ele>
        <time>2020-02-03T14:42:45Z</time>
      </trkpt>
      <trkpt lat="44.41743" lon="1.41867">
        <ele>178.12530666667</ele>
        <time>2020-02-03T14:42:54Z</time>
      </trkpt>
      <trkpt lat="44.41735" lon="1.41866">
        <ele>178.42538</ele>
        <time>2020-02-03T14:43:01Z</time>
      </trkpt>
      <trkpt lat="44.41726" lon="1.41865">
        <ele>175.72538666667</ele>
        <time>2020-02-03T14:43:09Z</time>
      </trkpt>
      <trkpt lat="44.41717" lon="1.41867">
        <ele>175.52534</ele>
        <time>2020-02-03T14:43:16Z</time>
      </trkpt>
      <trkpt lat="44.41709" lon="1.41868">
        <ele>174.12529333333</ele>
        <time>2020-02-03T14:43:23Z</time>
      </trkpt>
      <trkpt lat="44.41701" lon="1.41865">
        <ele>169.82540666667</ele>
        <time>2020-02-03T14:43:31Z</time>
      </trkpt>
      <trkpt lat="44.41693" lon="1.41865">
        <ele>169.52540666667</ele>
        <time>2020-02-03T14:43:38Z</time>
      </trkpt>
      <trkpt lat="44.41684" lon="1.41866">
        <ele>168.62537333333</ele>
        <time>2020-02-03T14:43:45Z</time>
      </trkpt>
      <trkpt lat="44.41676" lon="1.41867">
        <ele>169.22532666667</ele>
        <time>2020-02-03T14:43:51Z</time>
      </trkpt>
      <trkpt lat="44.41668" lon="1.41866">
        <ele>168.52535333333</ele>
        <time>2020-02-03T14:43:58Z</time>
      </trkpt>
      <trkpt lat="44.4166" lon="1.41869">
        <ele>168.02524666667</ele>
        <time>2020-02-03T14:44:05Z</time>
      </trkpt>
      <trkpt lat="44.41652" lon="1.4187">
        <ele>166.72519333333</ele>
        <time>2020-02-03T14:44:12Z</time>
      </trkpt>
      <trkpt lat="44.41643" lon="1.41871">
        <ele>165.52515333333</ele>
        <time>2020-02-03T14:44:19Z</time>
      </trkpt>
      <trkpt lat="44.41635" lon="1.41868">
        <ele>164.62528</ele>
        <time>2020-02-03T14:44:27Z</time>
      </trkpt>
      <trkpt lat="44.41627" lon="1.41869">
        <ele>165.62524</ele>
        <time>2020-02-03T14:44:38Z</time>
      </trkpt>
      <trkpt lat="44.41618" lon="1.4187">
        <ele>162.3252</ele>
        <time>2020-02-03T14:44:48Z</time>
      </trkpt>
      <trkpt lat="44.4161" lon="1.41865">
        <ele>162.42542</ele>
        <time>2020-02-03T14:44:53Z</time>
      </trkpt>
      <trkpt lat="44.41603" lon="1.41861">
        <ele>161.22558</ele>
        <time>2020-02-03T14:44:58Z</time>
      </trkpt>
      <trkpt lat="44.41595" lon="1.41859">
        <ele>158.12564</ele>
        <time>2020-02-03T14:45:03Z</time>
      </trkpt>
      <trkpt lat="44.41587" lon="1.4186">
        <ele>154.5256</ele>
        <time>2020-02-03T14:45:07Z</time>
      </trkpt>
      <trkpt lat="44.41579" lon="1.41859">
        <ele>154.12565333333</ele>
        <time>2020-02-03T14:45:13Z</time>
      </trkpt>
      <trkpt lat="44.41572" lon="1.41854">
        <ele>158.72584666667</ele>
        <time>2020-02-03T14:45:19Z</time>
      </trkpt>
      <trkpt lat="44.41563" lon="1.41851">
        <ele>164.02594666667</ele>
        <time>2020-02-03T14:45:29Z</time>
      </trkpt>
      <trkpt lat="44.41555" lon="1.41849">
        <ele>166.72605333333</ele>
        <time>2020-02-03T14:45:36Z</time>
      </trkpt>
      <trkpt lat="44.41548" lon="1.41844">
        <ele>167.92626</ele>
        <time>2020-02-03T14:45:42Z</time>
      </trkpt>
      <trkpt lat="44.41541" lon="1.41838">
        <ele>167.42649333333</ele>
        <time>2020-02-03T14:45:49Z</time>
      </trkpt>
      <trkpt lat="44.41535" lon="1.4183">
        <ele>163.72680666667</ele>
        <time>2020-02-03T14:45:56Z</time>
      </trkpt>
      <trkpt lat="44.41528" lon="1.41822">
        <ele>164.12712666667</ele>
        <time>2020-02-03T14:46:03Z</time>
      </trkpt>
      <trkpt lat="44.41522" lon="1.41814">
        <ele>163.72745333333</ele>
        <time>2020-02-03T14:46:10Z</time>
      </trkpt>
      <trkpt lat="44.41514" lon="1.41808">
        <ele>163.52768</ele>
        <time>2020-02-03T14:46:18Z</time>
      </trkpt>
      <trkpt lat="44.41507" lon="1.41805">
        <ele>162.82782</ele>
        <time>2020-02-03T14:46:27Z</time>
      </trkpt>
      <trkpt lat="44.41501" lon="1.41797">
        <ele>160.42812</ele>
        <time>2020-02-03T14:46:32Z</time>
      </trkpt>
      <trkpt lat="44.41496" lon="1.41787">
        <ele>159.52852666667</ele>
        <time>2020-02-03T14:46:37Z</time>
      </trkpt>
      <trkpt lat="44.4149" lon="1.4178">
        <ele>160.3288</ele>
        <time>2020-02-03T14:46:45Z</time>
      </trkpt>
      <trkpt lat="44.41482" lon="1.41775">
        <ele>162.62898666667</ele>
        <time>2020-02-03T14:46:55Z</time>
      </trkpt>
      <trkpt lat="44.41474" lon="1.41772">
        <ele>167.12911333333</ele>
        <time>2020-02-03T14:47:03Z</time>
      </trkpt>
      <trkpt lat="44.41466" lon="1.41768">
        <ele>165.22928666667</ele>
        <time>2020-02-03T14:47:11Z</time>
      </trkpt>
      <trkpt lat="44.41458" lon="1.41763">
        <ele>166.52948666667</ele>
        <time>2020-02-03T14:47:20Z</time>
      </trkpt>
      <trkpt lat="44.4145" lon="1.4176">
        <ele>167.82960666667</ele>
        <time>2020-02-03T14:47:29Z</time>
      </trkpt>
      <trkpt lat="44.41441" lon="1.41761">
        <ele>169.92955333333</ele>
        <time>2020-02-03T14:47:41Z</time>
      </trkpt>
      <trkpt lat="44.41432" lon="1.41761">
        <ele>173.62955333333</ele>
        <time>2020-02-03T14:47:51Z</time>
      </trkpt>
      <trkpt lat="44.41424" lon="1.41761">
        <ele>178.02958</ele>
        <time>2020-02-03T14:48:03Z</time>
      </trkpt>
      <trkpt lat="44.41417" lon="1.41757">
        <ele>179.82972666667</ele>
        <time>2020-02-03T14:48:10Z</time>
      </trkpt>
      <trkpt lat="44.41412" lon="1.41747">
        <ele>179.53011333333</ele>
        <time>2020-02-03T14:48:20Z</time>
      </trkpt>
      <trkpt lat="44.4141" lon="1.41735">
        <ele>178.93060666667</ele>
        <time>2020-02-03T14:48:27Z</time>
      </trkpt>
      <trkpt lat="44.41409" lon="1.41723">
        <ele>179.63107333333</ele>
        <time>2020-02-03T14:48:36Z</time>
      </trkpt>
      <trkpt lat="44.41409" lon="1.41711">
        <ele>178.73156</ele>
        <time>2020-02-03T14:48:43Z</time>
      </trkpt>
      <trkpt lat="44.41406" lon="1.41699">
        <ele>176.03202666667</ele>
        <time>2020-02-03T14:48:51Z</time>
      </trkpt>
      <trkpt lat="44.41403" lon="1.41689">
        <ele>174.73246</ele>
        <time>2020-02-03T14:48:58Z</time>
      </trkpt>
      <trkpt lat="44.41398" lon="1.4168">
        <ele>174.43280666667</ele>
        <time>2020-02-03T14:49:06Z</time>
      </trkpt>
      <trkpt lat="44.41394" lon="1.41669">
        <ele>171.43322666667</ele>
        <time>2020-02-03T14:49:12Z</time>
      </trkpt>
      <trkpt lat="44.4139" lon="1.41659">
        <ele>168.93366</ele>
        <time>2020-02-03T14:49:20Z</time>
      </trkpt>
      <trkpt lat="44.41387" lon="1.41648">
        <ele>170.2341</ele>
        <time>2020-02-03T14:49:27Z</time>
      </trkpt>
      <trkpt lat="44.41384" lon="1.41636">
        <ele>173.73456666667</ele>
        <time>2020-02-03T14:49:36Z</time>
      </trkpt>
      <trkpt lat="44.4138" lon="1.41626">
        <ele>171.93496666667</ele>
        <time>2020-02-03T14:49:41Z</time>
      </trkpt>
      <trkpt lat="44.41376" lon="1.41616">
        <ele>172.63536</ele>
        <time>2020-02-03T14:49:49Z</time>
      </trkpt>
      <trkpt lat="44.41371" lon="1.41607">
        <ele>172.53572666667</ele>
        <time>2020-02-03T14:49:59Z</time>
      </trkpt>
      <trkpt lat="44.41369" lon="1.41596">
        <ele>174.53618</ele>
        <time>2020-02-03T14:50:06Z</time>
      </trkpt>
      <trkpt lat="44.41368" lon="1.41584">
        <ele>176.83664666667</ele>
        <time>2020-02-03T14:50:12Z</time>
      </trkpt>
      <trkpt lat="44.41363" lon="1.41575">
        <ele>178.63700666667</ele>
        <time>2020-02-03T14:50:21Z</time>
      </trkpt>
      <trkpt lat="44.41359" lon="1.41566">
        <ele>178.53738</ele>
        <time>2020-02-03T14:50:29Z</time>
      </trkpt>
      <trkpt lat="44.41355" lon="1.41555">
        <ele>178.33778666667</ele>
        <time>2020-02-03T14:50:36Z</time>
      </trkpt>
      <trkpt lat="44.41353" lon="1.41545">
        <ele>176.43821333333</ele>
        <time>2020-02-03T14:50:43Z</time>
      </trkpt>
      <trkpt lat="44.4135" lon="1.41534">
        <ele>176.83864666667</ele>
        <time>2020-02-03T14:50:51Z</time>
      </trkpt>
      <trkpt lat="44.41346" lon="1.41524">
        <ele>180.13906</ele>
        <time>2020-02-03T14:51:01Z</time>
      </trkpt>
      <trkpt lat="44.41342" lon="1.41513">
        <ele>182.53947333333</ele>
        <time>2020-02-03T14:51:09Z</time>
      </trkpt>
      <trkpt lat="44.41339" lon="1.41502">
        <ele>184.53992</ele>
        <time>2020-02-03T14:51:18Z</time>
      </trkpt>
      <trkpt lat="44.41335" lon="1.41492">
        <ele>184.74031333333</ele>
        <time>2020-02-03T14:51:26Z</time>
      </trkpt>
      <trkpt lat="44.41331" lon="1.41482">
        <ele>185.64072666667</ele>
        <time>2020-02-03T14:51:34Z</time>
      </trkpt>
      <trkpt lat="44.41326" lon="1.41472">
        <ele>187.24110666667</ele>
        <time>2020-02-03T14:51:44Z</time>
      </trkpt>
      <trkpt lat="44.4132" lon="1.41465">
        <ele>189.54141333333</ele>
        <time>2020-02-03T14:51:55Z</time>
      </trkpt>
      <trkpt lat="44.41312" lon="1.41461">
        <ele>190.54158</ele>
        <time>2020-02-03T14:52:03Z</time>
      </trkpt>
      <trkpt lat="44.41304" lon="1.41454">
        <ele>191.64182666667</ele>
        <time>2020-02-03T14:52:12Z</time>
      </trkpt>
      <trkpt lat="44.413" lon="1.41446">
        <ele>190.34218</ele>
        <time>2020-02-03T14:52:19Z</time>
      </trkpt>
      <trkpt lat="44.41298" lon="1.41434">
        <ele>187.84262666667</ele>
        <time>2020-02-03T14:52:24Z</time>
      </trkpt>
      <trkpt lat="44.41295" lon="1.41424">
        <ele>187.24305333333</ele>
        <time>2020-02-03T14:52:30Z</time>
      </trkpt>
      <trkpt lat="44.41295" lon="1.41412">
        <ele>184.74350666667</ele>
        <time>2020-02-03T14:52:36Z</time>
      </trkpt>
      <trkpt lat="44.41294" lon="1.41402">
        <ele>183.64393333333</ele>
        <time>2020-02-03T14:52:42Z</time>
      </trkpt>
      <trkpt lat="44.41292" lon="1.41391">
        <ele>184.14438</ele>
        <time>2020-02-03T14:52:49Z</time>
      </trkpt>
      <trkpt lat="44.41291" lon="1.4138">
        <ele>181.44482</ele>
        <time>2020-02-03T14:52:57Z</time>
      </trkpt>
      <trkpt lat="44.4129" lon="1.41368">
        <ele>181.24528</ele>
        <time>2020-02-03T14:53:04Z</time>
      </trkpt>
      <trkpt lat="44.41289" lon="1.41356">
        <ele>180.44577333333</ele>
        <time>2020-02-03T14:53:11Z</time>
      </trkpt>
      <trkpt lat="44.4129" lon="1.41344">
        <ele>179.94624666667</ele>
        <time>2020-02-03T14:53:18Z</time>
      </trkpt>
      <trkpt lat="44.4129" lon="1.41332">
        <ele>179.54672666667</ele>
        <time>2020-02-03T14:53:25Z</time>
      </trkpt>
      <trkpt lat="44.4129" lon="1.4132">
        <ele>179.7472</ele>
        <time>2020-02-03T14:53:32Z</time>
      </trkpt>
      <trkpt lat="44.4129" lon="1.41308">
        <ele>180.8477</ele>
        <time>2020-02-03T14:53:39Z</time>
      </trkpt>
      <trkpt lat="44.41291" lon="1.41297">
        <ele>181.34813333333</ele>
        <time>2020-02-03T14:53:45Z</time>
      </trkpt>
      <trkpt lat="44.41292" lon="1.41286">
        <ele>181.44857333333</ele>
        <time>2020-02-03T14:53:51Z</time>
      </trkpt>
      <trkpt lat="44.41292" lon="1.41273">
        <ele>179.54906666667</ele>
        <time>2020-02-03T14:53:58Z</time>
      </trkpt>
      <trkpt lat="44.41293" lon="1.41262">
        <ele>178.54954</ele>
        <time>2020-02-03T14:54:05Z</time>
      </trkpt>
      <trkpt lat="44.41293" lon="1.41249">
        <ele>178.65002666667</ele>
        <time>2020-02-03T14:54:13Z</time>
      </trkpt>
      <trkpt lat="44.41295" lon="1.41239">
        <ele>175.95044666667</ele>
        <time>2020-02-03T15:06:01Z</time>
      </trkpt>
      <trkpt lat="44.41298" lon="1.41228">
        <ele>175.75089333333</ele>
        <time>2020-02-03T15:07:50Z</time>
      </trkpt>
      <trkpt lat="44.41298" lon="1.41215">
        <ele>175.65138666667</ele>
        <time>2020-02-03T15:07:58Z</time>
      </trkpt>
      <trkpt lat="44.41297" lon="1.41204">
        <ele>175.75186</ele>
        <time>2020-02-03T15:08:05Z</time>
      </trkpt>
      <trkpt lat="44.41296" lon="1.41192">
        <ele>175.95232</ele>
        <time>2020-02-03T15:08:12Z</time>
      </trkpt>
      <trkpt lat="44.41295" lon="1.4118">
        <ele>177.35281333333</ele>
        <time>2020-02-03T15:08:20Z</time>
      </trkpt>
      <trkpt lat="44.41297" lon="1.41168">
        <ele>177.85326666667</ele>
        <time>2020-02-03T15:08:28Z</time>
      </trkpt>
      <trkpt lat="44.41298" lon="1.41156">
        <ele>178.55374666667</ele>
        <time>2020-02-03T15:08:36Z</time>
      </trkpt>
      <trkpt lat="44.41297" lon="1.41145">
        <ele>178.3542</ele>
        <time>2020-02-03T15:09:05Z</time>
      </trkpt>
      <trkpt lat="44.413" lon="1.41133">
        <ele>176.75467333333</ele>
        <time>2020-02-03T15:09:12Z</time>
      </trkpt>
      <trkpt lat="44.41301" lon="1.41121">
        <ele>177.05516</ele>
        <time>2020-02-03T15:09:20Z</time>
      </trkpt>
      <trkpt lat="44.41303" lon="1.4111">
        <ele>177.65562</ele>
        <time>2020-02-03T15:09:27Z</time>
      </trkpt>
      <trkpt lat="44.41305" lon="1.41098">
        <ele>177.85607333333</ele>
        <time>2020-02-03T15:09:33Z</time>
      </trkpt>
      <trkpt lat="44.41307" lon="1.41087">
        <ele>176.55651333333</ele>
        <time>2020-02-03T15:09:39Z</time>
      </trkpt>
      <trkpt lat="44.41311" lon="1.41078">
        <ele>174.8569</ele>
        <time>2020-02-03T15:09:44Z</time>
      </trkpt>
      <trkpt lat="44.41314" lon="1.41068">
        <ele>173.55729333333</ele>
        <time>2020-02-03T15:09:50Z</time>
      </trkpt>
      <trkpt lat="44.41319" lon="1.41058">
        <ele>171.55768666667</ele>
        <time>2020-02-03T15:09:56Z</time>
      </trkpt>
      <trkpt lat="44.41323" lon="1.41047">
        <ele>170.25812</ele>
        <time>2020-02-03T15:10:03Z</time>
      </trkpt>
      <trkpt lat="44.41324" lon="1.41036">
        <ele>170.85857333333</ele>
        <time>2020-02-03T15:10:10Z</time>
      </trkpt>
      <trkpt lat="44.41327" lon="1.41024">
        <ele>169.15903333333</ele>
        <time>2020-02-03T15:10:16Z</time>
      </trkpt>
      <trkpt lat="44.41324" lon="1.41013">
        <ele>168.95947333333</ele>
        <time>2020-02-03T15:10:24Z</time>
      </trkpt>
      <trkpt lat="44.41318" lon="1.41011">
        <ele>176.45958</ele>
        <time>2020-02-03T15:10:36Z</time>
      </trkpt>
      <trkpt lat="44.4131" lon="1.41002">
        <ele>174.95990666667</ele>
        <time>2020-02-03T15:10:41Z</time>
      </trkpt>
      <trkpt lat="44.41302" lon="1.40996">
        <ele>173.26015333333</ele>
        <time>2020-02-03T15:10:49Z</time>
      </trkpt>
      <trkpt lat="44.41298" lon="1.40989">
        <ele>171.86046</ele>
        <time>2020-02-03T15:10:55Z</time>
      </trkpt>
      <trkpt lat="44.41299" lon="1.40976">
        <ele>168.86095333333</ele>
        <time>2020-02-03T15:10:59Z</time>
      </trkpt>
      <trkpt lat="44.41299" lon="1.40964">
        <ele>173.36142666667</ele>
        <time>2020-02-03T15:11:10Z</time>
      </trkpt>
      <trkpt lat="44.41301" lon="1.40955">
        <ele>174.46178666667</ele>
        <time>2020-02-03T15:11:18Z</time>
      </trkpt>
      <trkpt lat="44.41306" lon="1.40946">
        <ele>171.76217333333</ele>
        <time>2020-02-03T15:11:23Z</time>
      </trkpt>
      <trkpt lat="44.41311" lon="1.40935">
        <ele>173.96258666667</ele>
        <time>2020-02-03T15:11:30Z</time>
      </trkpt>
      <trkpt lat="44.41316" lon="1.40926">
        <ele>173.26296</ele>
        <time>2020-02-03T15:11:36Z</time>
      </trkpt>
      <trkpt lat="44.41321" lon="1.40916">
        <ele>174.86338</ele>
        <time>2020-02-03T15:11:46Z</time>
      </trkpt>
      <trkpt lat="44.41325" lon="1.40906">
        <ele>179.96377333333</ele>
        <time>2020-02-03T15:11:59Z</time>
      </trkpt>
      <trkpt lat="44.41331" lon="1.40897">
        <ele>183.16412</ele>
        <time>2020-02-03T15:12:07Z</time>
      </trkpt>
      <trkpt lat="44.41338" lon="1.4089">
        <ele>183.06440666667</ele>
        <time>2020-02-03T15:12:15Z</time>
      </trkpt>
      <trkpt lat="44.41345" lon="1.40883">
        <ele>183.36467333333</ele>
        <time>2020-02-03T15:12:24Z</time>
      </trkpt>
      <trkpt lat="44.41352" lon="1.40876">
        <ele>184.46496666667</ele>
        <time>2020-02-03T15:12:32Z</time>
      </trkpt>
      <trkpt lat="44.41359" lon="1.40869">
        <ele>186.96522666667</ele>
        <time>2020-02-03T15:12:42Z</time>
      </trkpt>
      <trkpt lat="44.41365" lon="1.4086">
        <ele>188.26558666667</ele>
        <time>2020-02-03T15:12:50Z</time>
      </trkpt>
      <trkpt lat="44.41369" lon="1.4085">
        <ele>189.96601333333</ele>
        <time>2020-02-03T15:13:04Z</time>
      </trkpt>
      <trkpt lat="44.4137" lon="1.40838">
        <ele>191.3665</ele>
        <time>2020-02-03T15:13:14Z</time>
      </trkpt>
      <trkpt lat="44.4137" lon="1.40826">
        <ele>193.06698</ele>
        <time>2020-02-03T15:13:21Z</time>
      </trkpt>
      <trkpt lat="44.4137" lon="1.40814">
        <ele>194.96743333333</ele>
        <time>2020-02-03T15:13:28Z</time>
      </trkpt>
      <trkpt lat="44.41372" lon="1.40803">
        <ele>194.56788</ele>
        <time>2020-02-03T15:13:35Z</time>
      </trkpt>
      <trkpt lat="44.41372" lon="1.40792">
        <ele>194.86834</ele>
        <time>2020-02-03T15:13:43Z</time>
      </trkpt>
      <trkpt lat="44.41374" lon="1.40781">
        <ele>194.86876</ele>
        <time>2020-02-03T15:13:48Z</time>
      </trkpt>
      <trkpt lat="44.41374" lon="1.40769">
        <ele>192.26922666667</ele>
        <time>2020-02-03T15:13:53Z</time>
      </trkpt>
      <trkpt lat="44.41377" lon="1.40759">
        <ele>190.36966</ele>
        <time>2020-02-03T15:13:59Z</time>
      </trkpt>
      <trkpt lat="44.41379" lon="1.40747">
        <ele>187.97012666667</ele>
        <time>2020-02-03T15:14:07Z</time>
      </trkpt>
      <trkpt lat="44.41379" lon="1.40735">
        <ele>186.3706</ele>
        <time>2020-02-03T15:14:15Z</time>
      </trkpt>
      <trkpt lat="44.4138" lon="1.40724">
        <ele>186.87104</ele>
        <time>2020-02-03T15:14:23Z</time>
      </trkpt>
      <trkpt lat="44.41384" lon="1.40713">
        <ele>186.07148</ele>
        <time>2020-02-03T15:14:30Z</time>
      </trkpt>
      <trkpt lat="44.41385" lon="1.40701">
        <ele>189.07196666667</ele>
        <time>2020-02-03T15:14:39Z</time>
      </trkpt>
      <trkpt lat="44.41386" lon="1.40689">
        <ele>189.07243333333</ele>
        <time>2020-02-03T15:14:46Z</time>
      </trkpt>
      <trkpt lat="44.41387" lon="1.40678">
        <ele>191.17288666667</ele>
        <time>2020-02-03T15:14:54Z</time>
      </trkpt>
      <trkpt lat="44.41387" lon="1.40666">
        <ele>192.17337333333</ele>
        <time>2020-02-03T15:15:01Z</time>
      </trkpt>
      <trkpt lat="44.41387" lon="1.40653">
        <ele>193.57387333333</ele>
        <time>2020-02-03T15:15:09Z</time>
      </trkpt>
      <trkpt lat="44.41388" lon="1.40641">
        <ele>191.57434666667</ele>
        <time>2020-02-03T15:15:15Z</time>
      </trkpt>
      <trkpt lat="44.41385" lon="1.4063">
        <ele>190.87480666667</ele>
        <time>2020-02-03T15:15:23Z</time>
      </trkpt>
      <trkpt lat="44.41386" lon="1.40618">
        <ele>193.67529333333</ele>
        <time>2020-02-03T15:15:33Z</time>
      </trkpt>
      <trkpt lat="44.41384" lon="1.40606">
        <ele>195.27576</ele>
        <time>2020-02-03T15:15:43Z</time>
      </trkpt>
      <trkpt lat="44.41384" lon="1.40594">
        <ele>196.87623333333</ele>
        <time>2020-02-03T15:15:51Z</time>
      </trkpt>
      <trkpt lat="44.4138" lon="1.40583">
        <ele>198.5767</ele>
        <time>2020-02-03T15:16:00Z</time>
      </trkpt>
      <trkpt lat="44.41376" lon="1.40574">
        <ele>198.67706</ele>
        <time>2020-02-03T15:16:08Z</time>
      </trkpt>
      <trkpt lat="44.41373" lon="1.40563">
        <ele>198.97748</ele>
        <time>2020-02-03T15:16:14Z</time>
      </trkpt>
      <trkpt lat="44.41368" lon="1.40554">
        <ele>199.17784666667</ele>
        <time>2020-02-03T15:16:20Z</time>
      </trkpt>
      <trkpt lat="44.41365" lon="1.40543">
        <ele>198.77827333333</ele>
        <time>2020-02-03T15:16:28Z</time>
      </trkpt>
      <trkpt lat="44.4136" lon="1.40533">
        <ele>198.07868666667</ele>
        <time>2020-02-03T15:16:35Z</time>
      </trkpt>
      <trkpt lat="44.41354" lon="1.40525">
        <ele>198.27898666667</ele>
        <time>2020-02-03T15:16:41Z</time>
      </trkpt>
      <trkpt lat="44.41348" lon="1.40517">
        <ele>198.77932</ele>
        <time>2020-02-03T15:16:48Z</time>
      </trkpt>
      <trkpt lat="44.41343" lon="1.40508">
        <ele>197.8797</ele>
        <time>2020-02-03T15:16:57Z</time>
      </trkpt>
      <trkpt lat="44.4134" lon="1.40497">
        <ele>197.48012666667</ele>
        <time>2020-02-03T15:17:06Z</time>
      </trkpt>
      <trkpt lat="44.4134" lon="1.40485">
        <ele>199.08062</ele>
        <time>2020-02-03T15:17:17Z</time>
      </trkpt>
      <trkpt lat="44.41342" lon="1.40473">
        <ele>199.88109333333</ele>
        <time>2020-02-03T15:17:26Z</time>
      </trkpt>
      <trkpt lat="44.41346" lon="1.40461">
        <ele>200.48155333333</ele>
        <time>2020-02-03T15:17:34Z</time>
      </trkpt>
      <trkpt lat="44.41344" lon="1.40449">
        <ele>200.98202666667</ele>
        <time>2020-02-03T15:17:43Z</time>
      </trkpt>
      <trkpt lat="44.41341" lon="1.40439">
        <ele>199.68245333333</ele>
        <time>2020-02-03T15:17:51Z</time>
      </trkpt>
      <trkpt lat="44.41333" lon="1.40433">
        <ele>201.08269333333</ele>
        <time>2020-02-03T15:18:02Z</time>
      </trkpt>
      <trkpt lat="44.41329" lon="1.40423">
        <ele>202.18306666667</ele>
        <time>2020-02-03T15:18:12Z</time>
      </trkpt>
      <trkpt lat="44.41322" lon="1.40416">
        <ele>202.78335333333</ele>
        <time>2020-02-03T15:18:22Z</time>
      </trkpt>
      <trkpt lat="44.41316" lon="1.40409">
        <ele>203.98366</ele>
        <time>2020-02-03T15:18:30Z</time>
      </trkpt>
      <trkpt lat="44.4131" lon="1.40401">
        <ele>203.38396666667</ele>
        <time>2020-02-03T15:18:36Z</time>
      </trkpt>
      <trkpt lat="44.41304" lon="1.40393">
        <ele>202.78429333333</ele>
        <time>2020-02-03T15:18:43Z</time>
      </trkpt>
      <trkpt lat="44.41297" lon="1.40386">
        <ele>202.28456666667</ele>
        <time>2020-02-03T15:18:51Z</time>
      </trkpt>
      <trkpt lat="44.41289" lon="1.40382">
        <ele>201.78470666667</ele>
        <time>2020-02-03T15:19:01Z</time>
      </trkpt>
      <trkpt lat="44.41281" lon="1.40376">
        <ele>204.88496666667</ele>
        <time>2020-02-03T15:19:11Z</time>
      </trkpt>
      <trkpt lat="44.41274" lon="1.40371">
        <ele>204.48518</ele>
        <time>2020-02-03T15:19:18Z</time>
      </trkpt>
      <trkpt lat="44.41265" lon="1.40366">
        <ele>202.58536666667</ele>
        <time>2020-02-03T15:19:24Z</time>
      </trkpt>
      <trkpt lat="44.41259" lon="1.40359">
        <ele>201.98566</ele>
        <time>2020-02-03T15:19:30Z</time>
      </trkpt>
      <trkpt lat="44.41253" lon="1.40351">
        <ele>202.68596666667</ele>
        <time>2020-02-03T15:19:37Z</time>
      </trkpt>
      <trkpt lat="44.41247" lon="1.40344">
        <ele>203.78625333333</ele>
        <time>2020-02-03T15:19:44Z</time>
      </trkpt>
      <trkpt lat="44.41241" lon="1.40335">
        <ele>202.98658666667</ele>
        <time>2020-02-03T15:19:51Z</time>
      </trkpt>
      <trkpt lat="44.41234" lon="1.40327">
        <ele>203.58692</ele>
        <time>2020-02-03T15:19:59Z</time>
      </trkpt>
      <trkpt lat="44.41228" lon="1.40319">
        <ele>202.18724</ele>
        <time>2020-02-03T15:20:06Z</time>
      </trkpt>
      <trkpt lat="44.41222" lon="1.40313">
        <ele>202.18749333333</ele>
        <time>2020-02-03T15:20:12Z</time>
      </trkpt>
      <trkpt lat="44.41214" lon="1.40307">
        <ele>203.68773333333</ele>
        <time>2020-02-03T15:20:20Z</time>
      </trkpt>
      <trkpt lat="44.41207" lon="1.40301">
        <ele>205.58796666667</ele>
        <time>2020-02-03T15:20:28Z</time>
      </trkpt>
      <trkpt lat="44.41201" lon="1.40294">
        <ele>206.28824</ele>
        <time>2020-02-03T15:20:35Z</time>
      </trkpt>
      <trkpt lat="44.41195" lon="1.40285">
        <ele>206.88862</ele>
        <time>2020-02-03T15:20:43Z</time>
      </trkpt>
      <trkpt lat="44.41191" lon="1.40274">
        <ele>208.58903333333</ele>
        <time>2020-02-03T15:20:53Z</time>
      </trkpt>
      <trkpt lat="44.41185" lon="1.40265">
        <ele>208.28942</ele>
        <time>2020-02-03T15:21:03Z</time>
      </trkpt>
      <trkpt lat="44.41179" lon="1.40257">
        <ele>209.38974</ele>
        <time>2020-02-03T15:21:13Z</time>
      </trkpt>
      <trkpt lat="44.41171" lon="1.40252">
        <ele>207.88991333333</ele>
        <time>2020-02-03T15:21:20Z</time>
      </trkpt>
      <trkpt lat="44.41162" lon="1.40251">
        <ele>208.08997333333</ele>
        <time>2020-02-03T15:21:29Z</time>
      </trkpt>
      <trkpt lat="44.41157" lon="1.40241">
        <ele>207.49034666667</ele>
        <time>2020-02-03T15:21:37Z</time>
      </trkpt>
      <trkpt lat="44.41152" lon="1.40232">
        <ele>206.19074</ele>
        <time>2020-02-03T15:21:44Z</time>
      </trkpt>
      <trkpt lat="44.41147" lon="1.40223">
        <ele>205.59108</ele>
        <time>2020-02-03T15:21:51Z</time>
      </trkpt>
      <trkpt lat="44.41142" lon="1.40214">
        <ele>205.79146</ele>
        <time>2020-02-03T15:21:57Z</time>
      </trkpt>
      <trkpt lat="44.41134" lon="1.40207">
        <ele>207.49172666667</ele>
        <time>2020-02-03T15:22:06Z</time>
      </trkpt>
      <trkpt lat="44.41129" lon="1.40199">
        <ele>208.39206</ele>
        <time>2020-02-03T15:22:13Z</time>
      </trkpt>
      <trkpt lat="44.41124" lon="1.40189">
        <ele>208.19243333333</ele>
        <time>2020-02-03T15:22:20Z</time>
      </trkpt>
      <trkpt lat="44.41119" lon="1.4018">
        <ele>206.89279333333</ele>
        <time>2020-02-03T15:22:26Z</time>
      </trkpt>
      <trkpt lat="44.41114" lon="1.40173">
        <ele>206.9931</ele>
        <time>2020-02-03T15:22:32Z</time>
      </trkpt>
      <trkpt lat="44.41109" lon="1.40162">
        <ele>206.19351333333</ele>
        <time>2020-02-03T15:22:39Z</time>
      </trkpt>
      <trkpt lat="44.41103" lon="1.40155">
        <ele>206.69380666667</ele>
        <time>2020-02-03T15:22:45Z</time>
      </trkpt>
      <trkpt lat="44.41096" lon="1.40148">
        <ele>208.69409333333</ele>
        <time>2020-02-03T15:22:53Z</time>
      </trkpt>
      <trkpt lat="44.4109" lon="1.4014">
        <ele>209.89441333333</ele>
        <time>2020-02-03T15:23:00Z</time>
      </trkpt>
      <trkpt lat="44.41086" lon="1.4013">
        <ele>211.69478666667</ele>
        <time>2020-02-03T15:23:07Z</time>
      </trkpt>
      <trkpt lat="44.41084" lon="1.40119">
        <ele>212.09524</ele>
        <time>2020-02-03T15:23:14Z</time>
      </trkpt>
      <trkpt lat="44.41083" lon="1.40108">
        <ele>212.69569333333</ele>
        <time>2020-02-03T15:23:21Z</time>
      </trkpt>
      <trkpt lat="44.41082" lon="1.40096">
        <ele>213.79614666667</ele>
        <time>2020-02-03T15:23:28Z</time>
      </trkpt>
      <trkpt lat="44.41084" lon="1.40085">
        <ele>213.8966</ele>
        <time>2020-02-03T15:23:35Z</time>
      </trkpt>
      <trkpt lat="44.41085" lon="1.40074">
        <ele>213.49704666667</ele>
        <time>2020-02-03T15:23:41Z</time>
      </trkpt>
      <trkpt lat="44.41086" lon="1.40062">
        <ele>213.19752</ele>
        <time>2020-02-03T15:23:48Z</time>
      </trkpt>
      <trkpt lat="44.41089" lon="1.4005">
        <ele>210.59799333333</ele>
        <time>2020-02-03T15:23:55Z</time>
      </trkpt>
      <trkpt lat="44.41091" lon="1.40039">
        <ele>212.89844</ele>
        <time>2020-02-03T15:24:03Z</time>
      </trkpt>
      <trkpt lat="44.41092" lon="1.40027">
        <ele>212.69892666667</ele>
        <time>2020-02-03T15:24:12Z</time>
      </trkpt>
      <trkpt lat="44.41092" lon="1.40014">
        <ele>212.19942666667</ele>
        <time>2020-02-03T15:24:22Z</time>
      </trkpt>
      <trkpt lat="44.41092" lon="1.40002">
        <ele>212.09991333333</ele>
        <time>2020-02-03T15:24:47Z</time>
      </trkpt>
      <trkpt lat="44.4109" lon="1.39991">
        <ele>205.60037333333</ele>
        <time>2020-02-03T15:25:10Z</time>
      </trkpt>
      <trkpt lat="44.41091" lon="1.39979">
        <ele>206.40086</ele>
        <time>2020-02-03T15:25:26Z</time>
      </trkpt>
      <trkpt lat="44.4109" lon="1.39967">
        <ele>204.20131333333</ele>
        <time>2020-02-03T15:25:35Z</time>
      </trkpt>
      <trkpt lat="44.41094" lon="1.39956">
        <ele>207.50176666667</ele>
        <time>2020-02-03T15:25:48Z</time>
      </trkpt>
      <trkpt lat="44.41098" lon="1.39947">
        <ele>214.80212</ele>
        <time>2020-02-03T15:26:02Z</time>
      </trkpt>
      <trkpt lat="44.41104" lon="1.39938">
        <ele>218.00248666667</ele>
        <time>2020-02-03T15:26:16Z</time>
      </trkpt>
      <trkpt lat="44.41109" lon="1.39929">
        <ele>216.90286</ele>
        <time>2020-02-03T15:26:26Z</time>
      </trkpt>
      <trkpt lat="44.41112" lon="1.39917">
        <ele>209.90332</ele>
        <time>2020-02-03T15:26:52Z</time>
      </trkpt>
      <trkpt lat="44.4111" lon="1.39906">
        <ele>205.80376666667</ele>
        <time>2020-02-03T15:27:30Z</time>
      </trkpt>
      <trkpt lat="44.41107" lon="1.39892">
        <ele>205.70432666667</ele>
        <time>2020-02-03T15:27:35Z</time>
      </trkpt>
      <trkpt lat="44.411" lon="1.39885">
        <ele>207.70459333333</ele>
        <time>2020-02-03T15:27:42Z</time>
      </trkpt>
      <trkpt lat="44.41092" lon="1.39878">
        <ele>208.20489333333</ele>
        <time>2020-02-03T15:27:50Z</time>
      </trkpt>
      <trkpt lat="44.41092" lon="1.39866">
        <ele>210.10537333333</ele>
        <time>2020-02-03T15:28:01Z</time>
      </trkpt>
      <trkpt lat="44.41091" lon="1.39854">
        <ele>215.60586</ele>
        <time>2020-02-03T15:28:17Z</time>
      </trkpt>
      <trkpt lat="44.41091" lon="1.39842">
        <ele>210.60632666667</ele>
        <time>2020-02-03T15:28:23Z</time>
      </trkpt>
      <trkpt lat="44.41089" lon="1.39831">
        <ele>206.50678</ele>
        <time>2020-02-03T15:28:30Z</time>
      </trkpt>
      <trkpt lat="44.41089" lon="1.39818">
        <ele>209.30726666667</ele>
        <time>2020-02-03T15:28:41Z</time>
      </trkpt>
      <trkpt lat="44.41092" lon="1.39808">
        <ele>205.30769333333</ele>
        <time>2020-02-03T15:28:57Z</time>
      </trkpt>
      <trkpt lat="44.41094" lon="1.39802">
        <ele>208.50793333333</ele>
        <time>2020-02-03T15:29:18Z</time>
      </trkpt>
      <trkpt lat="44.41097" lon="1.39786">
        <ele>214.60855333333</ele>
        <time>2020-02-03T15:29:22Z</time>
      </trkpt>
      <trkpt lat="44.41103" lon="1.39777">
        <ele>218.50892</ele>
        <time>2020-02-03T15:29:34Z</time>
      </trkpt>
      <trkpt lat="44.41107" lon="1.39767">
        <ele>220.40934</ele>
        <time>2020-02-03T15:29:45Z</time>
      </trkpt>
      <trkpt lat="44.41111" lon="1.39759">
        <ele>220.60964666667</ele>
        <time>2020-02-03T15:29:55Z</time>
      </trkpt>
      <trkpt lat="44.41115" lon="1.39748">
        <ele>215.21008666667</ele>
        <time>2020-02-03T15:30:01Z</time>
      </trkpt>
      <trkpt lat="44.41117" lon="1.39741">
        <ele>217.51034666667</ele>
        <time>2020-02-03T15:30:11Z</time>
      </trkpt>
      <trkpt lat="44.41117" lon="1.3973">
        <ele>216.11081333333</ele>
        <time>2020-02-03T15:30:18Z</time>
      </trkpt>
      <trkpt lat="44.41112" lon="1.3972">
        <ele>214.6112</ele>
        <time>2020-02-03T15:30:28Z</time>
      </trkpt>
      <trkpt lat="44.41106" lon="1.39713">
        <ele>213.1115</ele>
        <time>2020-02-03T15:30:39Z</time>
      </trkpt>
      <trkpt lat="44.41107" lon="1.39701">
        <ele>215.01198</ele>
        <time>2020-02-03T15:30:44Z</time>
      </trkpt>
      <trkpt lat="44.41111" lon="1.39689">
        <ele>211.51242666667</ele>
        <time>2020-02-03T15:30:50Z</time>
      </trkpt>
      <trkpt lat="44.41116" lon="1.3968">
        <ele>211.61278666667</ele>
        <time>2020-02-03T15:30:58Z</time>
      </trkpt>
      <trkpt lat="44.41122" lon="1.39673">
        <ele>211.1131</ele>
        <time>2020-02-03T15:31:07Z</time>
      </trkpt>
      <trkpt lat="44.41128" lon="1.39665">
        <ele>209.21339333333</ele>
        <time>2020-02-03T15:31:14Z</time>
      </trkpt>
      <trkpt lat="44.41134" lon="1.39657">
        <ele>205.51372666667</ele>
        <time>2020-02-03T15:31:21Z</time>
      </trkpt>
      <trkpt lat="44.41142" lon="1.39651">
        <ele>207.91394666667</ele>
        <time>2020-02-03T15:31:29Z</time>
      </trkpt>
      <trkpt lat="44.41149" lon="1.39645">
        <ele>209.71420666667</ele>
        <time>2020-02-03T15:31:37Z</time>
      </trkpt>
      <trkpt lat="44.41157" lon="1.39642">
        <ele>208.71431333333</ele>
        <time>2020-02-03T15:31:45Z</time>
      </trkpt>
      <trkpt lat="44.41164" lon="1.39638">
        <ele>209.31448</ele>
        <time>2020-02-03T15:31:52Z</time>
      </trkpt>
      <trkpt lat="44.41172" lon="1.39633">
        <ele>209.61468</ele>
        <time>2020-02-03T15:32:00Z</time>
      </trkpt>
      <trkpt lat="44.4118" lon="1.3963">
        <ele>209.41482</ele>
        <time>2020-02-03T15:32:08Z</time>
      </trkpt>
      <trkpt lat="44.41188" lon="1.39627">
        <ele>210.21494</ele>
        <time>2020-02-03T15:32:18Z</time>
      </trkpt>
      <trkpt lat="44.41197" lon="1.39625">
        <ele>210.91502</ele>
        <time>2020-02-03T15:32:26Z</time>
      </trkpt>
      <trkpt lat="44.41204" lon="1.39624">
        <ele>213.11505333333</ele>
        <time>2020-02-03T15:32:38Z</time>
      </trkpt>
      <trkpt lat="44.41213" lon="1.39624">
        <ele>212.31504666667</ele>
        <time>2020-02-03T15:32:46Z</time>
      </trkpt>
      <trkpt lat="44.41222" lon="1.39626">
        <ele>209.61496666667</ele>
        <time>2020-02-03T15:32:52Z</time>
      </trkpt>
      <trkpt lat="44.4123" lon="1.39626">
        <ele>206.91497333333</ele>
        <time>2020-02-03T15:33:04Z</time>
      </trkpt>
      <trkpt lat="44.41238" lon="1.39624">
        <ele>202.11505333333</ele>
        <time>2020-02-03T15:33:16Z</time>
      </trkpt>
      <trkpt lat="44.41246" lon="1.39621">
        <ele>202.31516666667</ele>
        <time>2020-02-03T15:33:25Z</time>
      </trkpt>
      <trkpt lat="44.41254" lon="1.39618">
        <ele>202.5153</ele>
        <time>2020-02-03T15:33:34Z</time>
      </trkpt>
      <trkpt lat="44.41263" lon="1.39616">
        <ele>201.21535333333</ele>
        <time>2020-02-03T15:33:43Z</time>
      </trkpt>
      <trkpt lat="44.41271" lon="1.39615">
        <ele>197.31539333333</ele>
        <time>2020-02-03T15:33:52Z</time>
      </trkpt>
      <trkpt lat="44.41279" lon="1.3961">
        <ele>198.41561333333</ele>
        <time>2020-02-03T15:34:08Z</time>
      </trkpt>
      <trkpt lat="44.41287" lon="1.39608">
        <ele>198.11566666667</ele>
        <time>2020-02-03T15:34:16Z</time>
      </trkpt>
      <trkpt lat="44.41295" lon="1.39607">
        <ele>194.71570666667</ele>
        <time>2020-02-03T15:34:21Z</time>
      </trkpt>
      <trkpt lat="44.41304" lon="1.39607">
        <ele>194.21571333333</ele>
        <time>2020-02-03T15:34:30Z</time>
      </trkpt>
      <trkpt lat="44.41311" lon="1.39608">
        <ele>188.61566666667</ele>
        <time>2020-02-03T15:34:40Z</time>
      </trkpt>
      <trkpt lat="44.4132" lon="1.39611">
        <ele>184.71554666667</ele>
        <time>2020-02-03T15:34:48Z</time>
      </trkpt>
      <trkpt lat="44.41328" lon="1.39615">
        <ele>178.31540666667</ele>
        <time>2020-02-03T15:34:57Z</time>
      </trkpt>
      <trkpt lat="44.41336" lon="1.39613">
        <ele>178.31546666667</ele>
        <time>2020-02-03T15:35:05Z</time>
      </trkpt>
      <trkpt lat="44.41345" lon="1.39611">
        <ele>176.71554666667</ele>
        <time>2020-02-03T15:35:11Z</time>
      </trkpt>
      <trkpt lat="44.41352" lon="1.39611">
        <ele>175.81558</ele>
        <time>2020-02-03T15:35:17Z</time>
      </trkpt>
      <trkpt lat="44.41361" lon="1.3961">
        <ele>176.01559333333</ele>
        <time>2020-02-03T15:35:25Z</time>
      </trkpt>
      <trkpt lat="44.4137" lon="1.39609">
        <ele>172.01565333333</ele>
        <time>2020-02-03T15:35:37Z</time>
      </trkpt>
      <trkpt lat="44.41378" lon="1.39606">
        <ele>169.41574666667</ele>
        <time>2020-02-03T15:35:49Z</time>
      </trkpt>
      <trkpt lat="44.41387" lon="1.39607">
        <ele>167.61571333333</ele>
        <time>2020-02-03T15:35:59Z</time>
      </trkpt>
      <trkpt lat="44.41393" lon="1.39616">
        <ele>163.21537333333</ele>
        <time>2020-02-03T15:36:11Z</time>
      </trkpt>
      <trkpt lat="44.41401" lon="1.39611">
        <ele>163.31556</ele>
        <time>2020-02-03T15:36:23Z</time>
      </trkpt>
      <trkpt lat="44.41408" lon="1.39604">
        <ele>163.81582666667</ele>
        <time>2020-02-03T15:36:30Z</time>
      </trkpt>
      <trkpt lat="44.41407" lon="1.39593">
        <ele>160.61629333333</ele>
        <time>2020-02-03T15:36:55Z</time>
      </trkpt>
      <trkpt lat="44.41408" lon="1.39581">
        <ele>158.11676666667</ele>
        <time>2020-02-03T15:37:03Z</time>
      </trkpt>
      <trkpt lat="44.41415" lon="1.39572">
        <ele>154.31712666667</ele>
        <time>2020-02-03T15:37:33Z</time>
      </trkpt>
      <trkpt lat="44.41416" lon="1.3956">
        <ele>157.41760666667</ele>
        <time>2020-02-03T15:37:41Z</time>
      </trkpt>
      <trkpt lat="44.4142" lon="1.3955">
        <ele>158.41798666667</ele>
        <time>2020-02-03T15:37:48Z</time>
      </trkpt>
      <trkpt lat="44.41426" lon="1.39545">
        <ele>165.41822</ele>
        <time>2020-02-03T15:38:24Z</time>
      </trkpt>
      <trkpt lat="44.41435" lon="1.39542">
        <ele>168.81834</ele>
        <time>2020-02-03T15:38:35Z</time>
      </trkpt>
      <trkpt lat="44.41442" lon="1.39546">
        <ele>169.61818</ele>
        <time>2020-02-03T15:38:57Z</time>
      </trkpt>
      <trkpt lat="44.41449" lon="1.39548">
        <ele>161.21807333333</ele>
        <time>2020-02-03T15:39:03Z</time>
      </trkpt>
      <trkpt lat="44.41457" lon="1.39543">
        <ele>154.21828</ele>
        <time>2020-02-03T15:39:24Z</time>
      </trkpt>
      <trkpt lat="44.41457" lon="1.39532">
        <ele>155.21872666667</ele>
        <time>2020-02-03T15:39:38Z</time>
      </trkpt>
      <trkpt lat="44.41456" lon="1.3952">
        <ele>157.11922</ele>
        <time>2020-02-03T15:39:48Z</time>
      </trkpt>
      <trkpt lat="44.41455" lon="1.39509">
        <ele>159.71965333333</ele>
        <time>2020-02-03T15:39:55Z</time>
      </trkpt>
      <trkpt lat="44.41454" lon="1.39497">
        <ele>161.92011333333</ele>
        <time>2020-02-03T15:40:03Z</time>
      </trkpt>
      <trkpt lat="44.41455" lon="1.39485">
        <ele>162.3206</ele>
        <time>2020-02-03T15:40:12Z</time>
      </trkpt>
      <trkpt lat="44.41455" lon="1.39473">
        <ele>163.2211</ele>
        <time>2020-02-03T15:40:22Z</time>
      </trkpt>
      <trkpt lat="44.41455" lon="1.3946">
        <ele>162.42158666667</ele>
        <time>2020-02-03T15:40:29Z</time>
      </trkpt>
      <trkpt lat="44.41455" lon="1.39449">
        <ele>154.02203333333</ele>
        <time>2020-02-03T15:40:35Z</time>
      </trkpt>
      <trkpt lat="44.41451" lon="1.39439">
        <ele>154.42243333333</ele>
        <time>2020-02-03T15:40:41Z</time>
      </trkpt>
      <trkpt lat="44.41453" lon="1.39428">
        <ele>157.52287333333</ele>
        <time>2020-02-03T15:40:49Z</time>
      </trkpt>
      <trkpt lat="44.41457" lon="1.39419">
        <ele>161.82324</ele>
        <time>2020-02-03T15:40:57Z</time>
      </trkpt>
      <trkpt lat="44.41462" lon="1.39409">
        <ele>163.82364</ele>
        <time>2020-02-03T15:41:05Z</time>
      </trkpt>
      <trkpt lat="44.41467" lon="1.394">
        <ele>163.72399333333</ele>
        <time>2020-02-03T15:41:13Z</time>
      </trkpt>
      <trkpt lat="44.41475" lon="1.39395">
        <ele>165.52420666667</ele>
        <time>2020-02-03T15:41:19Z</time>
      </trkpt>
      <trkpt lat="44.41484" lon="1.39392">
        <ele>170.32432</ele>
        <time>2020-02-03T15:41:23Z</time>
      </trkpt>
      <trkpt lat="44.41492" lon="1.39388">
        <ele>175.12446666667</ele>
        <time>2020-02-03T15:41:29Z</time>
      </trkpt>
      <trkpt lat="44.41498" lon="1.39381">
        <ele>177.52477333333</ele>
        <time>2020-02-03T15:41:34Z</time>
      </trkpt>
      <trkpt lat="44.41492" lon="1.39368">
        <ele>175.52528</ele>
        <time>2020-02-03T15:41:39Z</time>
      </trkpt>
      <trkpt lat="44.41494" lon="1.39356">
        <ele>174.22576</ele>
        <time>2020-02-03T15:41:48Z</time>
      </trkpt>
      <trkpt lat="44.41498" lon="1.39345">
        <ele>175.52620666667</ele>
        <time>2020-02-03T15:41:57Z</time>
      </trkpt>
      <trkpt lat="44.41497" lon="1.39334">
        <ele>177.62666</ele>
        <time>2020-02-03T15:42:05Z</time>
      </trkpt>
      <trkpt lat="44.41505" lon="1.39328">
        <ele>173.92686666667</ele>
        <time>2020-02-03T15:42:10Z</time>
      </trkpt>
      <trkpt lat="44.41513" lon="1.39323">
        <ele>171.22707333333</ele>
        <time>2020-02-03T15:42:17Z</time>
      </trkpt>
      <trkpt lat="44.41521" lon="1.3932">
        <ele>163.32722</ele>
        <time>2020-02-03T15:42:26Z</time>
      </trkpt>
      <trkpt lat="44.41527" lon="1.3931">
        <ele>164.02758666667</ele>
        <time>2020-02-03T15:42:34Z</time>
      </trkpt>
      <trkpt lat="44.41533" lon="1.39301">
        <ele>163.72796</ele>
        <time>2020-02-03T15:42:43Z</time>
      </trkpt>
      <trkpt lat="44.41539" lon="1.39294">
        <ele>163.62822666667</ele>
        <time>2020-02-03T15:42:49Z</time>
      </trkpt>
      <trkpt lat="44.41546" lon="1.39289">
        <ele>165.22845333333</ele>
        <time>2020-02-03T15:42:55Z</time>
      </trkpt>
      <trkpt lat="44.41552" lon="1.39283">
        <ele>166.02868666667</ele>
        <time>2020-02-03T15:43:01Z</time>
      </trkpt>
      <trkpt lat="44.4156" lon="1.39278">
        <ele>168.02887333333</ele>
        <time>2020-02-03T15:43:07Z</time>
      </trkpt>
      <trkpt lat="44.41568" lon="1.39275">
        <ele>169.42898666667</ele>
        <time>2020-02-03T15:43:13Z</time>
      </trkpt>
      <trkpt lat="44.41575" lon="1.39271">
        <ele>171.52917333333</ele>
        <time>2020-02-03T15:43:20Z</time>
      </trkpt>
      <trkpt lat="44.41582" lon="1.39266">
        <ele>175.82934666667</ele>
        <time>2020-02-03T15:43:27Z</time>
      </trkpt>
      <trkpt lat="44.41587" lon="1.39256">
        <ele>187.72974666667</ele>
        <time>2020-02-03T15:43:44Z</time>
      </trkpt>
      <trkpt lat="44.41595" lon="1.3925">
        <ele>179.83002</ele>
        <time>2020-02-03T15:43:52Z</time>
      </trkpt>
      <trkpt lat="44.41592" lon="1.39242">
        <ele>176.73030666667</ele>
        <time>2020-02-03T15:44:08Z</time>
      </trkpt>
      <trkpt lat="44.41596" lon="1.39232">
        <ele>174.13073333333</ele>
        <time>2020-02-03T15:44:14Z</time>
      </trkpt>
      <trkpt lat="44.41603" lon="1.39225">
        <ele>172.53100666667</ele>
        <time>2020-02-03T15:44:25Z</time>
      </trkpt>
      <trkpt lat="44.41604" lon="1.39213">
        <ele>171.13147333333</ele>
        <time>2020-02-03T15:44:32Z</time>
      </trkpt>
      <trkpt lat="44.41607" lon="1.39202">
        <ele>172.93190666667</ele>
        <time>2020-02-03T15:44:39Z</time>
      </trkpt>
      <trkpt lat="44.41609" lon="1.39191">
        <ele>175.13235333333</ele>
        <time>2020-02-03T15:44:48Z</time>
      </trkpt>
      <trkpt lat="44.4161" lon="1.39179">
        <ele>175.83283333333</ele>
        <time>2020-02-03T15:44:57Z</time>
      </trkpt>
      <trkpt lat="44.41613" lon="1.39169">
        <ele>176.53325333333</ele>
        <time>2020-02-03T15:45:03Z</time>
      </trkpt>
      <trkpt lat="44.41616" lon="1.39158">
        <ele>175.23367333333</ele>
        <time>2020-02-03T15:45:09Z</time>
      </trkpt>
      <trkpt lat="44.41622" lon="1.3915">
        <ele>172.63400666667</ele>
        <time>2020-02-03T15:45:14Z</time>
      </trkpt>
      <trkpt lat="44.41625" lon="1.39139">
        <ele>174.23445333333</ele>
        <time>2020-02-03T15:45:22Z</time>
      </trkpt>
      <trkpt lat="44.41627" lon="1.39127">
        <ele>177.33491333333</ele>
        <time>2020-02-03T15:45:31Z</time>
      </trkpt>
      <trkpt lat="44.41628" lon="1.39116">
        <ele>181.63538</ele>
        <time>2020-02-03T15:45:40Z</time>
      </trkpt>
      <trkpt lat="44.41628" lon="1.39104">
        <ele>183.83585333333</ele>
        <time>2020-02-03T15:45:48Z</time>
      </trkpt>
      <trkpt lat="44.41626" lon="1.39092">
        <ele>182.83630666667</ele>
        <time>2020-02-03T15:45:57Z</time>
      </trkpt>
      <trkpt lat="44.41624" lon="1.39081">
        <ele>182.93677333333</ele>
        <time>2020-02-03T15:46:07Z</time>
      </trkpt>
      <trkpt lat="44.4162" lon="1.39071">
        <ele>184.63716666667</ele>
        <time>2020-02-03T15:46:17Z</time>
      </trkpt>
      <trkpt lat="44.41614" lon="1.39062">
        <ele>184.73752666667</ele>
        <time>2020-02-03T15:46:22Z</time>
      </trkpt>
      <trkpt lat="44.41614" lon="1.3905">
        <ele>181.838</ele>
        <time>2020-02-03T15:46:27Z</time>
      </trkpt>
      <trkpt lat="44.41612" lon="1.39039">
        <ele>180.83844666667</ele>
        <time>2020-02-03T15:46:34Z</time>
      </trkpt>
      <trkpt lat="44.41606" lon="1.39032">
        <ele>186.53871333333</ele>
        <time>2020-02-03T15:46:45Z</time>
      </trkpt>
      <trkpt lat="44.41599" lon="1.39025">
        <ele>190.139</ele>
        <time>2020-02-03T15:46:54Z</time>
      </trkpt>
      <trkpt lat="44.41598" lon="1.39014">
        <ele>186.33946</ele>
        <time>2020-02-03T15:47:00Z</time>
      </trkpt>
      <trkpt lat="44.41594" lon="1.39003">
        <ele>188.73987333333</ele>
        <time>2020-02-03T15:47:11Z</time>
      </trkpt>
      <trkpt lat="44.41587" lon="1.38998">
        <ele>193.84006666667</ele>
        <time>2020-02-03T15:47:20Z</time>
      </trkpt>
      <trkpt lat="44.41583" lon="1.38988">
        <ele>199.24046666667</ele>
        <time>2020-02-03T15:47:30Z</time>
      </trkpt>
      <trkpt lat="44.41579" lon="1.38977">
        <ele>200.04092</ele>
        <time>2020-02-03T15:47:37Z</time>
      </trkpt>
      <trkpt lat="44.41577" lon="1.38968">
        <ele>202.74129333333</ele>
        <time>2020-02-03T15:47:44Z</time>
      </trkpt>
      <trkpt lat="44.41575" lon="1.38957">
        <ele>198.34171333333</ele>
        <time>2020-02-03T15:47:48Z</time>
      </trkpt>
      <trkpt lat="44.4157" lon="1.38948">
        <ele>197.4421</ele>
        <time>2020-02-03T15:47:54Z</time>
      </trkpt>
      <trkpt lat="44.41566" lon="1.38938">
        <ele>199.84246666667</ele>
        <time>2020-02-03T15:48:02Z</time>
      </trkpt>
      <trkpt lat="44.41564" lon="1.38927">
        <ele>196.34290666667</ele>
        <time>2020-02-03T15:48:10Z</time>
      </trkpt>
      <trkpt lat="44.41561" lon="1.38916">
        <ele>197.04334666667</ele>
        <time>2020-02-03T15:48:18Z</time>
      </trkpt>
      <trkpt lat="44.41558" lon="1.38905">
        <ele>194.94382</ele>
        <time>2020-02-03T15:48:25Z</time>
      </trkpt>
      <trkpt lat="44.41556" lon="1.38894">
        <ele>190.94422666667</ele>
        <time>2020-02-03T15:48:35Z</time>
      </trkpt>
      <trkpt lat="44.41553" lon="1.38885">
        <ele>187.34462</ele>
        <time>2020-02-03T15:48:40Z</time>
      </trkpt>
      <trkpt lat="44.4155" lon="1.38873">
        <ele>184.94506666667</ele>
        <time>2020-02-03T15:48:45Z</time>
      </trkpt>
      <trkpt lat="44.41546" lon="1.38864">
        <ele>185.74545333333</ele>
        <time>2020-02-03T15:48:52Z</time>
      </trkpt>
      <trkpt lat="44.41542" lon="1.38853">
        <ele>186.44588666667</ele>
        <time>2020-02-03T15:49:00Z</time>
      </trkpt>
      <trkpt lat="44.41538" lon="1.38843">
        <ele>185.94627333333</ele>
        <time>2020-02-03T15:49:07Z</time>
      </trkpt>
      <trkpt lat="44.41534" lon="1.38833">
        <ele>185.14666666667</ele>
        <time>2020-02-03T15:49:14Z</time>
      </trkpt>
      <trkpt lat="44.4153" lon="1.38822">
        <ele>182.84712</ele>
        <time>2020-02-03T15:49:22Z</time>
      </trkpt>
      <trkpt lat="44.41526" lon="1.38811">
        <ele>182.54754666667</ele>
        <time>2020-02-03T15:49:31Z</time>
      </trkpt>
      <trkpt lat="44.41523" lon="1.388">
        <ele>185.24800666667</ele>
        <time>2020-02-03T15:49:39Z</time>
      </trkpt>
      <trkpt lat="44.41521" lon="1.38788">
        <ele>191.24848666667</ele>
        <time>2020-02-03T15:49:53Z</time>
      </trkpt>
      <trkpt lat="44.41518" lon="1.38776">
        <ele>195.74894666667</ele>
        <time>2020-02-03T15:50:04Z</time>
      </trkpt>
      <trkpt lat="44.41513" lon="1.38768">
        <ele>195.2493</ele>
        <time>2020-02-03T15:50:09Z</time>
      </trkpt>
      <trkpt lat="44.4151" lon="1.38756">
        <ele>195.34976</ele>
        <time>2020-02-03T15:50:16Z</time>
      </trkpt>
      <trkpt lat="44.41507" lon="1.38745">
        <ele>196.25021333333</ele>
        <time>2020-02-03T15:50:23Z</time>
      </trkpt>
      <trkpt lat="44.41505" lon="1.38734">
        <ele>196.65066</ele>
        <time>2020-02-03T15:50:30Z</time>
      </trkpt>
      <trkpt lat="44.41504" lon="1.38723">
        <ele>195.05106666667</ele>
        <time>2020-02-03T15:50:35Z</time>
      </trkpt>
      <trkpt lat="44.41508" lon="1.38711">
        <ele>191.95158</ele>
        <time>2020-02-03T15:50:40Z</time>
      </trkpt>
      <trkpt lat="44.41511" lon="1.38699">
        <ele>188.55204</ele>
        <time>2020-02-03T15:50:46Z</time>
      </trkpt>
      <trkpt lat="44.41513" lon="1.38688">
        <ele>189.2525</ele>
        <time>2020-02-03T15:50:55Z</time>
      </trkpt>
      <trkpt lat="44.41517" lon="1.38677">
        <ele>187.65291333333</ele>
        <time>2020-02-03T15:51:01Z</time>
      </trkpt>
      <trkpt lat="44.41521" lon="1.38668">
        <ele>185.85328666667</ele>
        <time>2020-02-03T15:51:06Z</time>
      </trkpt>
      <trkpt lat="44.41521" lon="1.38658">
        <ele>186.6537</ele>
        <time>2020-02-03T15:51:10Z</time>
      </trkpt>
      <trkpt lat="44.41522" lon="1.38647">
        <ele>184.55412</ele>
        <time>2020-02-03T15:51:16Z</time>
      </trkpt>
      <trkpt lat="44.41519" lon="1.38633">
        <ele>178.25468666667</ele>
        <time>2020-02-03T15:51:21Z</time>
      </trkpt>
      <trkpt lat="44.41522" lon="1.38622">
        <ele>177.55514</ele>
        <time>2020-02-03T15:51:31Z</time>
      </trkpt>
      <trkpt lat="44.41524" lon="1.3861">
        <ele>179.35558666667</ele>
        <time>2020-02-03T15:51:41Z</time>
      </trkpt>
      <trkpt lat="44.41524" lon="1.38598">
        <ele>188.45608</ele>
        <time>2020-02-03T15:51:54Z</time>
      </trkpt>
      <trkpt lat="44.41522" lon="1.38586">
        <ele>208.15656</ele>
        <time>2020-02-03T15:52:16Z</time>
      </trkpt>
      <trkpt lat="44.41522" lon="1.38574">
        <ele>213.35704666667</ele>
        <time>2020-02-03T15:52:27Z</time>
      </trkpt>
      <trkpt lat="44.41521" lon="1.38562">
        <ele>217.35750666667</ele>
        <time>2020-02-03T15:52:38Z</time>
      </trkpt>
      <trkpt lat="44.41516" lon="1.38553">
        <ele>215.7579</ele>
        <time>2020-02-03T15:52:47Z</time>
      </trkpt>
      <trkpt lat="44.41511" lon="1.38544">
        <ele>214.15822666667</ele>
        <time>2020-02-03T15:52:53Z</time>
      </trkpt>
      <trkpt lat="44.41507" lon="1.38535">
        <ele>213.4586</ele>
        <time>2020-02-03T15:53:00Z</time>
      </trkpt>
      <trkpt lat="44.41507" lon="1.38523">
        <ele>211.45906666667</ele>
        <time>2020-02-03T15:53:12Z</time>
      </trkpt>
      <trkpt lat="44.41504" lon="1.38513">
        <ele>215.55946666667</ele>
        <time>2020-02-03T15:53:25Z</time>
      </trkpt>
      <trkpt lat="44.415" lon="1.38502">
        <ele>217.95990666667</ele>
        <time>2020-02-03T15:53:34Z</time>
      </trkpt>
      <trkpt lat="44.41495" lon="1.38493">
        <ele>219.4603</ele>
        <time>2020-02-03T15:53:43Z</time>
      </trkpt>
      <trkpt lat="44.4149" lon="1.38483">
        <ele>217.46066666667</ele>
        <time>2020-02-03T15:53:52Z</time>
      </trkpt>
      <trkpt lat="44.41485" lon="1.38474">
        <ele>215.66106</ele>
        <time>2020-02-03T15:54:02Z</time>
      </trkpt>
      <trkpt lat="44.41477" lon="1.38469">
        <ele>219.46124666667</ele>
        <time>2020-02-03T15:54:13Z</time>
      </trkpt>
      <trkpt lat="44.41469" lon="1.38465">
        <ele>221.26140666667</ele>
        <time>2020-02-03T15:54:23Z</time>
      </trkpt>
      <trkpt lat="44.41462" lon="1.38459">
        <ele>219.86166</ele>
        <time>2020-02-03T15:54:30Z</time>
      </trkpt>
      <trkpt lat="44.41464" lon="1.38471">
        <ele>221.16118</ele>
        <time>2020-02-03T15:55:08Z</time>
      </trkpt>
      <trkpt lat="44.41465" lon="1.38483">
        <ele>225.3607</ele>
        <time>2020-02-03T15:55:18Z</time>
      </trkpt>
      <trkpt lat="44.41467" lon="1.38494">
        <ele>228.86025333333</ele>
        <time>2020-02-03T15:55:29Z</time>
      </trkpt>
      <trkpt lat="44.41468" lon="1.38506">
        <ele>232.25977333333</ele>
        <time>2020-02-03T15:55:39Z</time>
      </trkpt>
      <trkpt lat="44.41468" lon="1.38518">
        <ele>231.7593</ele>
        <time>2020-02-03T15:55:48Z</time>
      </trkpt>
      <trkpt lat="44.41466" lon="1.3853">
        <ele>228.95880666667</ele>
        <time>2020-02-03T15:55:56Z</time>
      </trkpt>
      <trkpt lat="44.4146" lon="1.38538">
        <ele>232.0585</ele>
        <time>2020-02-03T15:56:04Z</time>
      </trkpt>
      <trkpt lat="44.41452" lon="1.38541">
        <ele>233.55838</ele>
        <time>2020-02-03T15:56:12Z</time>
      </trkpt>
      <trkpt lat="44.41443" lon="1.38539">
        <ele>234.05843333333</ele>
        <time>2020-02-03T15:56:21Z</time>
      </trkpt>
      <trkpt lat="44.41437" lon="1.38532">
        <ele>231.55874</ele>
        <time>2020-02-03T15:56:27Z</time>
      </trkpt>
      <trkpt lat="44.41432" lon="1.38523">
        <ele>231.8591</ele>
        <time>2020-02-03T15:56:37Z</time>
      </trkpt>
      <trkpt lat="44.41427" lon="1.38514">
        <ele>233.95942666667</ele>
        <time>2020-02-03T15:56:46Z</time>
      </trkpt>
      <trkpt lat="44.41423" lon="1.38504">
        <ele>235.65984</ele>
        <time>2020-02-03T15:56:55Z</time>
      </trkpt>
      <trkpt lat="44.41417" lon="1.38495">
        <ele>237.96018666667</ele>
        <time>2020-02-03T15:57:04Z</time>
      </trkpt>
      <trkpt lat="44.4141" lon="1.38488">
        <ele>241.56048666667</ele>
        <time>2020-02-03T15:57:14Z</time>
      </trkpt>
      <trkpt lat="44.41403" lon="1.3848">
        <ele>241.76079333333</ele>
        <time>2020-02-03T15:57:22Z</time>
      </trkpt>
      <trkpt lat="44.41396" lon="1.38473">
        <ele>240.46108</ele>
        <time>2020-02-03T15:57:30Z</time>
      </trkpt>
      <trkpt lat="44.4139" lon="1.38467">
        <ele>238.86132666667</ele>
        <time>2020-02-03T16:02:56Z</time>
      </trkpt>
      <trkpt lat="44.41384" lon="1.38458">
        <ele>235.8617</ele>
        <time>2020-02-03T16:03:04Z</time>
      </trkpt>
      <trkpt lat="44.41377" lon="1.38452">
        <ele>235.16192</ele>
        <time>2020-02-03T16:03:15Z</time>
      </trkpt>
      <trkpt lat="44.41369" lon="1.38446">
        <ele>232.86217333333</ele>
        <time>2020-02-03T16:03:27Z</time>
      </trkpt>
      <trkpt lat="44.41362" lon="1.38442">
        <ele>233.56234</ele>
        <time>2020-02-03T16:03:35Z</time>
      </trkpt>
      <trkpt lat="44.41355" lon="1.38436">
        <ele>234.16254666667</ele>
        <time>2020-02-03T16:03:43Z</time>
      </trkpt>
      <trkpt lat="44.41349" lon="1.38429">
        <ele>233.26284666667</ele>
        <time>2020-02-03T16:03:50Z</time>
      </trkpt>
      <trkpt lat="44.41341" lon="1.38424">
        <ele>233.86304666667</ele>
        <time>2020-02-03T16:03:58Z</time>
      </trkpt>
      <trkpt lat="44.41336" lon="1.38415">
        <ele>234.66339333333</ele>
        <time>2020-02-03T16:04:06Z</time>
      </trkpt>
      <trkpt lat="44.41329" lon="1.38408">
        <ele>236.26368</ele>
        <time>2020-02-03T16:04:13Z</time>
      </trkpt>
      <trkpt lat="44.41324" lon="1.38399">
        <ele>234.46406</ele>
        <time>2020-02-03T16:04:19Z</time>
      </trkpt>
      <trkpt lat="44.41319" lon="1.38389">
        <ele>233.66443333333</ele>
        <time>2020-02-03T16:04:26Z</time>
      </trkpt>
      <trkpt lat="44.41313" lon="1.38382">
        <ele>234.36471333333</ele>
        <time>2020-02-03T16:04:34Z</time>
      </trkpt>
      <trkpt lat="44.41305" lon="1.38376">
        <ele>235.56494666667</ele>
        <time>2020-02-03T16:04:42Z</time>
      </trkpt>
      <trkpt lat="44.41298" lon="1.3837">
        <ele>236.56519333333</ele>
        <time>2020-02-03T16:04:49Z</time>
      </trkpt>
      <trkpt lat="44.41291" lon="1.38364">
        <ele>236.96546</ele>
        <time>2020-02-03T16:04:56Z</time>
      </trkpt>
      <trkpt lat="44.41285" lon="1.38355">
        <ele>235.66582</ele>
        <time>2020-02-03T16:05:04Z</time>
      </trkpt>
      <trkpt lat="44.41277" lon="1.38348">
        <ele>237.26609333333</ele>
        <time>2020-02-03T16:05:12Z</time>
      </trkpt>
      <trkpt lat="44.41272" lon="1.38338">
        <ele>237.76649333333</ele>
        <time>2020-02-03T16:05:24Z</time>
      </trkpt>
      <trkpt lat="44.41267" lon="1.38327">
        <ele>239.16690666667</ele>
        <time>2020-02-03T16:05:34Z</time>
      </trkpt>
      <trkpt lat="44.41264" lon="1.38316">
        <ele>242.36735333333</ele>
        <time>2020-02-03T16:05:44Z</time>
      </trkpt>
      <trkpt lat="44.4126" lon="1.38305">
        <ele>244.66779333333</ele>
        <time>2020-02-03T16:05:54Z</time>
      </trkpt>
      <trkpt lat="44.41255" lon="1.38296">
        <ele>248.26816</ele>
        <time>2020-02-03T16:06:04Z</time>
      </trkpt>
      <trkpt lat="44.4125" lon="1.38288">
        <ele>250.46848666667</ele>
        <time>2020-02-03T16:06:12Z</time>
      </trkpt>
      <trkpt lat="44.41248" lon="1.38276">
        <ele>251.06895333333</ele>
        <time>2020-02-03T16:06:18Z</time>
      </trkpt>
      <trkpt lat="44.41244" lon="1.38265">
        <ele>253.1694</ele>
        <time>2020-02-03T16:06:28Z</time>
      </trkpt>
      <trkpt lat="44.41237" lon="1.38258">
        <ele>256.3697</ele>
        <time>2020-02-03T16:06:39Z</time>
      </trkpt>
      <trkpt lat="44.41229" lon="1.3825">
        <ele>256.96998666667</ele>
        <time>2020-02-03T16:06:48Z</time>
      </trkpt>
      <trkpt lat="44.41225" lon="1.3824">
        <ele>259.57039333333</ele>
        <time>2020-02-03T16:06:59Z</time>
      </trkpt>
      <trkpt lat="44.41219" lon="1.38232">
        <ele>261.27074</ele>
        <time>2020-02-03T16:07:07Z</time>
      </trkpt>
      <trkpt lat="44.41214" lon="1.38223">
        <ele>261.5711</ele>
        <time>2020-02-03T16:07:15Z</time>
      </trkpt>
      <trkpt lat="44.41208" lon="1.38213">
        <ele>263.77146666667</ele>
        <time>2020-02-03T16:07:26Z</time>
      </trkpt>
      <trkpt lat="44.41202" lon="1.38205">
        <ele>263.47182</ele>
        <time>2020-02-03T16:07:35Z</time>
      </trkpt>
      <trkpt lat="44.41195" lon="1.38196">
        <ele>263.77214666667</ele>
        <time>2020-02-03T16:07:42Z</time>
      </trkpt>
      <trkpt lat="44.41189" lon="1.38188">
        <ele>264.07248666667</ele>
        <time>2020-02-03T16:07:48Z</time>
      </trkpt>
      <trkpt lat="44.41183" lon="1.38179">
        <ele>266.97284</ele>
        <time>2020-02-03T16:07:57Z</time>
      </trkpt>
      <trkpt lat="44.41179" lon="1.38169">
        <ele>268.17324666667</ele>
        <time>2020-02-03T16:08:07Z</time>
      </trkpt>
      <trkpt lat="44.41176" lon="1.38158">
        <ele>269.37368666667</ele>
        <time>2020-02-03T16:08:16Z</time>
      </trkpt>
      <trkpt lat="44.41177" lon="1.38146">
        <ele>271.37414666667</ele>
        <time>2020-02-03T16:08:25Z</time>
      </trkpt>
      <trkpt lat="44.41177" lon="1.38142">
        <ele>272.57430666667</ele>
        <time>2020-02-03T16:09:25Z</time>
      </trkpt>
      <trkpt lat="44.4118" lon="1.3813">
        <ele>267.97480666667</ele>
        <time>2020-02-03T16:09:30Z</time>
      </trkpt>
      <trkpt lat="44.4118" lon="1.38121">
        <ele>267.47514666667</ele>
        <time>2020-02-03T16:09:55Z</time>
      </trkpt>
      <trkpt lat="44.41182" lon="1.38109">
        <ele>268.77562666667</ele>
        <time>2020-02-03T16:10:02Z</time>
      </trkpt>
      <trkpt lat="44.41185" lon="1.38098">
        <ele>270.17608</ele>
        <time>2020-02-03T16:10:11Z</time>
      </trkpt>
      <trkpt lat="44.41185" lon="1.38087">
        <ele>269.67652666667</ele>
        <time>2020-02-03T16:10:17Z</time>
      </trkpt>
      <trkpt lat="44.41186" lon="1.38075">
        <ele>264.97701333333</ele>
        <time>2020-02-03T16:10:23Z</time>
      </trkpt>
      <trkpt lat="44.41185" lon="1.38063">
        <ele>262.47746666667</ele>
        <time>2020-02-03T16:10:30Z</time>
      </trkpt>
      <trkpt lat="44.41184" lon="1.38052">
        <ele>261.67791333333</ele>
        <time>2020-02-03T16:10:37Z</time>
      </trkpt>
      <trkpt lat="44.41181" lon="1.3804">
        <ele>259.67838666667</ele>
        <time>2020-02-03T16:10:45Z</time>
      </trkpt>
      <trkpt lat="44.41182" lon="1.38029">
        <ele>261.17885333333</ele>
        <time>2020-02-03T16:10:54Z</time>
      </trkpt>
      <trkpt lat="44.41184" lon="1.38017">
        <ele>264.27930666667</ele>
        <time>2020-02-03T16:11:03Z</time>
      </trkpt>
      <trkpt lat="44.41187" lon="1.38006">
        <ele>265.27978</ele>
        <time>2020-02-03T16:11:11Z</time>
      </trkpt>
      <trkpt lat="44.41191" lon="1.37995">
        <ele>266.28021333333</ele>
        <time>2020-02-03T16:11:19Z</time>
      </trkpt>
      <trkpt lat="44.41193" lon="1.37983">
        <ele>267.78068666667</ele>
        <time>2020-02-03T16:11:27Z</time>
      </trkpt>
      <trkpt lat="44.41195" lon="1.37971">
        <ele>269.18114666667</ele>
        <time>2020-02-03T16:11:35Z</time>
      </trkpt>
      <trkpt lat="44.41197" lon="1.37959">
        <ele>269.38162666667</ele>
        <time>2020-02-03T16:11:42Z</time>
      </trkpt>
      <trkpt lat="44.41198" lon="1.37948">
        <ele>267.9821</ele>
        <time>2020-02-03T16:11:52Z</time>
      </trkpt>
      <trkpt lat="44.41201" lon="1.37936">
        <ele>269.58258</ele>
        <time>2020-02-03T16:12:00Z</time>
      </trkpt>
      <trkpt lat="44.41203" lon="1.37924">
        <ele>271.08304</ele>
        <time>2020-02-03T16:12:07Z</time>
      </trkpt>
      <trkpt lat="44.41204" lon="1.37913">
        <ele>271.38348666667</ele>
        <time>2020-02-03T16:12:14Z</time>
      </trkpt>
      <trkpt lat="44.41205" lon="1.37901">
        <ele>271.48398</ele>
        <time>2020-02-03T16:12:23Z</time>
      </trkpt>
      <trkpt lat="44.41206" lon="1.37888">
        <ele>273.78448</ele>
        <time>2020-02-03T16:12:32Z</time>
      </trkpt>
      <trkpt lat="44.41207" lon="1.37876">
        <ele>275.08498</ele>
        <time>2020-02-03T16:12:42Z</time>
      </trkpt>
      <trkpt lat="44.41209" lon="1.37864">
        <ele>276.98545333333</ele>
        <time>2020-02-03T16:12:51Z</time>
      </trkpt>
      <trkpt lat="44.41211" lon="1.37852">
        <ele>278.98591333333</ele>
        <time>2020-02-03T16:13:00Z</time>
      </trkpt>
      <trkpt lat="44.41214" lon="1.37842">
        <ele>280.08634</ele>
        <time>2020-02-03T16:13:07Z</time>
      </trkpt>
      <trkpt lat="44.41218" lon="1.37831">
        <ele>280.88674666667</ele>
        <time>2020-02-03T16:13:15Z</time>
      </trkpt>
      <trkpt lat="44.41223" lon="1.3782">
        <ele>276.98718666667</ele>
        <time>2020-02-03T16:13:23Z</time>
      </trkpt>
      <trkpt lat="44.4123" lon="1.37814">
        <ele>274.98745333333</ele>
        <time>2020-02-03T16:13:30Z</time>
      </trkpt>
      <trkpt lat="44.41237" lon="1.37807">
        <ele>275.08774</ele>
        <time>2020-02-03T16:13:38Z</time>
      </trkpt>
      <trkpt lat="44.41244" lon="1.37798">
        <ele>274.48808666667</ele>
        <time>2020-02-03T16:13:45Z</time>
      </trkpt>
      <trkpt lat="44.41247" lon="1.37788">
        <ele>275.0885</ele>
        <time>2020-02-03T16:13:52Z</time>
      </trkpt>
      <trkpt lat="44.41251" lon="1.37777">
        <ele>275.58890666667</ele>
        <time>2020-02-03T16:13:59Z</time>
      </trkpt>
      <trkpt lat="44.41253" lon="1.37767">
        <ele>273.98934</ele>
        <time>2020-02-03T16:14:06Z</time>
      </trkpt>
      <trkpt lat="44.4126" lon="1.37758">
        <ele>276.68966666667</ele>
        <time>2020-02-03T16:14:15Z</time>
      </trkpt>
      <trkpt lat="44.41267" lon="1.37752">
        <ele>285.98994</ele>
        <time>2020-02-03T16:14:25Z</time>
      </trkpt>
      <trkpt lat="44.41274" lon="1.37746">
        <ele>287.09016666667</ele>
        <time>2020-02-03T16:14:33Z</time>
      </trkpt>
      <trkpt lat="44.41281" lon="1.37739">
        <ele>289.09045333333</ele>
        <time>2020-02-03T16:14:41Z</time>
      </trkpt>
      <trkpt lat="44.41287" lon="1.37731">
        <ele>292.99076</ele>
        <time>2020-02-03T16:14:49Z</time>
      </trkpt>
      <trkpt lat="44.41294" lon="1.37726">
        <ele>295.19097333333</ele>
        <time>2020-02-03T16:14:56Z</time>
      </trkpt>
      <trkpt lat="44.41302" lon="1.3772">
        <ele>291.09118666667</ele>
        <time>2020-02-03T16:15:03Z</time>
      </trkpt>
      <trkpt lat="44.41309" lon="1.37715">
        <ele>285.7914</ele>
        <time>2020-02-03T16:15:09Z</time>
      </trkpt>
      <trkpt lat="44.41316" lon="1.3771">
        <ele>282.59158666667</ele>
        <time>2020-02-03T16:15:15Z</time>
      </trkpt>
      <trkpt lat="44.41325" lon="1.37707">
        <ele>288.89171333333</ele>
        <time>2020-02-03T16:15:25Z</time>
      </trkpt>
      <trkpt lat="44.41333" lon="1.37705">
        <ele>286.7918</ele>
        <time>2020-02-03T16:15:32Z</time>
      </trkpt>
      <trkpt lat="44.41341" lon="1.37699">
        <ele>285.89206</ele>
        <time>2020-02-03T16:15:39Z</time>
      </trkpt>
      <trkpt lat="44.41349" lon="1.37693">
        <ele>283.6923</ele>
        <time>2020-02-03T16:15:47Z</time>
      </trkpt>
      <trkpt lat="44.41355" lon="1.37683">
        <ele>282.99267333333</ele>
        <time>2020-02-03T16:15:54Z</time>
      </trkpt>
      <trkpt lat="44.41362" lon="1.37676">
        <ele>281.29297333333</ele>
        <time>2020-02-03T16:16:01Z</time>
      </trkpt>
      <trkpt lat="44.41366" lon="1.37667">
        <ele>280.89332</ele>
        <time>2020-02-03T16:16:07Z</time>
      </trkpt>
      <trkpt lat="44.41371" lon="1.37659">
        <ele>280.59364666667</ele>
        <time>2020-02-03T16:16:13Z</time>
      </trkpt>
      <trkpt lat="44.41377" lon="1.37651">
        <ele>280.59397333333</ele>
        <time>2020-02-03T16:16:19Z</time>
      </trkpt>
      <trkpt lat="44.41383" lon="1.37643">
        <ele>281.19428</ele>
        <time>2020-02-03T16:16:25Z</time>
      </trkpt>
      <trkpt lat="44.41389" lon="1.37634">
        <ele>279.59462666667</ele>
        <time>2020-02-03T16:16:32Z</time>
      </trkpt>
      <trkpt lat="44.41393" lon="1.37625">
        <ele>278.19501333333</ele>
        <time>2020-02-03T16:16:39Z</time>
      </trkpt>
      <trkpt lat="44.41398" lon="1.37616">
        <ele>278.39537333333</ele>
        <time>2020-02-03T16:16:46Z</time>
      </trkpt>
      <trkpt lat="44.41403" lon="1.37605">
        <ele>277.09578666667</ele>
        <time>2020-02-03T16:16:53Z</time>
      </trkpt>
      <trkpt lat="44.41408" lon="1.37597">
        <ele>272.49612</ele>
        <time>2020-02-03T16:16:59Z</time>
      </trkpt>
      <trkpt lat="44.41412" lon="1.37587">
        <ele>273.69652</ele>
        <time>2020-02-03T16:17:06Z</time>
      </trkpt>
      <trkpt lat="44.41414" lon="1.37576">
        <ele>274.99694666667</ele>
        <time>2020-02-03T16:17:13Z</time>
      </trkpt>
      <trkpt lat="44.41419" lon="1.37568">
        <ele>275.29728666667</ele>
        <time>2020-02-03T16:17:20Z</time>
      </trkpt>
      <trkpt lat="44.41425" lon="1.3756">
        <ele>277.19761333333</ele>
        <time>2020-02-03T16:17:27Z</time>
      </trkpt>
      <trkpt lat="44.41431" lon="1.37551">
        <ele>275.09797333333</ele>
        <time>2020-02-03T16:17:35Z</time>
      </trkpt>
      <trkpt lat="44.41434" lon="1.37541">
        <ele>275.79838</ele>
        <time>2020-02-03T16:17:42Z</time>
      </trkpt>
      <trkpt lat="44.41437" lon="1.3753">
        <ele>284.99881333333</ele>
        <time>2020-02-03T16:17:58Z</time>
      </trkpt>
      <trkpt lat="44.41439" lon="1.37518">
        <ele>283.79928</ele>
        <time>2020-02-03T16:18:28Z</time>
      </trkpt>
      <trkpt lat="44.41437" lon="1.37506">
        <ele>285.59976666667</ele>
        <time>2020-02-03T16:18:37Z</time>
      </trkpt>
      <trkpt lat="44.41436" lon="1.37494">
        <ele>285.20022666667</ele>
        <time>2020-02-03T16:18:44Z</time>
      </trkpt>
      <trkpt lat="44.41436" lon="1.37483">
        <ele>282.2007</ele>
        <time>2020-02-03T16:18:51Z</time>
      </trkpt>
      <trkpt lat="44.41435" lon="1.37471">
        <ele>281.30115333333</ele>
        <time>2020-02-03T16:19:00Z</time>
      </trkpt>
      <trkpt lat="44.41433" lon="1.3746">
        <ele>280.40158666667</ele>
        <time>2020-02-03T16:19:06Z</time>
      </trkpt>
      <trkpt lat="44.41432" lon="1.37448">
        <ele>278.20207333333</ele>
        <time>2020-02-03T16:19:13Z</time>
      </trkpt>
      <trkpt lat="44.4143" lon="1.37437">
        <ele>278.60254</ele>
        <time>2020-02-03T16:19:21Z</time>
      </trkpt>
      <trkpt lat="44.4143" lon="1.37425">
        <ele>277.403</ele>
        <time>2020-02-03T16:19:27Z</time>
      </trkpt>
      <trkpt lat="44.41428" lon="1.37414">
        <ele>275.90345333333</ele>
        <time>2020-02-03T16:19:34Z</time>
      </trkpt>
      <trkpt lat="44.41427" lon="1.37402">
        <ele>278.20391333333</ele>
        <time>2020-02-03T16:19:43Z</time>
      </trkpt>
      <trkpt lat="44.41424" lon="1.37391">
        <ele>282.10436</ele>
        <time>2020-02-03T16:19:53Z</time>
      </trkpt>
      <trkpt lat="44.4142" lon="1.3738">
        <ele>286.80478666667</ele>
        <time>2020-02-03T16:20:02Z</time>
      </trkpt>
      <trkpt lat="44.41418" lon="1.37368">
        <ele>288.30526666667</ele>
        <time>2020-02-03T16:20:10Z</time>
      </trkpt>
      <trkpt lat="44.41416" lon="1.37356">
        <ele>288.90576</ele>
        <time>2020-02-03T16:20:17Z</time>
      </trkpt>
      <trkpt lat="44.41414" lon="1.37344">
        <ele>290.90623333333</ele>
        <time>2020-02-03T16:20:26Z</time>
      </trkpt>
      <trkpt lat="44.41413" lon="1.37333">
        <ele>288.60668</ele>
        <time>2020-02-03T16:20:32Z</time>
      </trkpt>
      <trkpt lat="44.41411" lon="1.37321">
        <ele>286.60715333333</ele>
        <time>2020-02-03T16:20:39Z</time>
      </trkpt>
      <trkpt lat="44.4141" lon="1.37309">
        <ele>285.40764</ele>
        <time>2020-02-03T16:20:46Z</time>
      </trkpt>
      <trkpt lat="44.41407" lon="1.37297">
        <ele>285.30810666667</ele>
        <time>2020-02-03T16:20:55Z</time>
      </trkpt>
      <trkpt lat="44.41405" lon="1.37285">
        <ele>287.40858666667</ele>
        <time>2020-02-03T16:21:03Z</time>
      </trkpt>
      <trkpt lat="44.41403" lon="1.37273">
        <ele>290.30906666667</ele>
        <time>2020-02-03T16:21:12Z</time>
      </trkpt>
      <trkpt lat="44.414" lon="1.37262">
        <ele>290.80952666667</ele>
        <time>2020-02-03T16:21:21Z</time>
      </trkpt>
      <trkpt lat="44.41401" lon="1.3725">
        <ele>289.21</ele>
        <time>2020-02-03T16:21:29Z</time>
      </trkpt>
      <trkpt lat="44.414" lon="1.37238">
        <ele>288.01049333333</ele>
        <time>2020-02-03T16:21:37Z</time>
      </trkpt>
      <trkpt lat="44.41399" lon="1.37226">
        <ele>288.21094666667</ele>
        <time>2020-02-03T16:21:46Z</time>
      </trkpt>
      <trkpt lat="44.41403" lon="1.37215">
        <ele>289.21139333333</ele>
        <time>2020-02-03T16:21:55Z</time>
      </trkpt>
      <trkpt lat="44.41411" lon="1.37211">
        <ele>290.01156666667</ele>
        <time>2020-02-03T16:22:04Z</time>
      </trkpt>
      <trkpt lat="44.41418" lon="1.37207">
        <ele>292.71173333333</ele>
        <time>2020-02-03T16:22:12Z</time>
      </trkpt>
      <trkpt lat="44.41427" lon="1.37204">
        <ele>294.61182666667</ele>
        <time>2020-02-03T16:22:19Z</time>
      </trkpt>
      <trkpt lat="44.41435" lon="1.372">
        <ele>297.31199333333</ele>
        <time>2020-02-03T16:22:28Z</time>
      </trkpt>
      <trkpt lat="44.41443" lon="1.37196">
        <ele>301.01214666667</ele>
        <time>2020-02-03T16:22:38Z</time>
      </trkpt>
      <trkpt lat="44.4145" lon="1.3719">
        <ele>301.41240666667</ele>
        <time>2020-02-03T16:22:46Z</time>
      </trkpt>
      <trkpt lat="44.41458" lon="1.37184">
        <ele>304.71266</ele>
        <time>2020-02-03T16:22:55Z</time>
      </trkpt>
      <trkpt lat="44.41466" lon="1.3718">
        <ele>302.21282</ele>
        <time>2020-02-03T16:23:03Z</time>
      </trkpt>
      <trkpt lat="44.41476" lon="1.37178">
        <ele>297.41287333333</ele>
        <time>2020-02-03T16:23:08Z</time>
      </trkpt>
      <trkpt lat="44.41483" lon="1.37171">
        <ele>294.11317333333</ele>
        <time>2020-02-03T16:23:15Z</time>
      </trkpt>
      <trkpt lat="44.41489" lon="1.37162">
        <ele>291.71352</ele>
        <time>2020-02-03T16:23:23Z</time>
      </trkpt>
      <trkpt lat="44.41491" lon="1.37151">
        <ele>291.91397333333</ele>
        <time>2020-02-03T16:23:30Z</time>
      </trkpt>
      <trkpt lat="44.41492" lon="1.37139">
        <ele>292.61445333333</ele>
        <time>2020-02-03T16:23:37Z</time>
      </trkpt>
      <trkpt lat="44.41489" lon="1.37128">
        <ele>288.7149</ele>
        <time>2020-02-03T16:23:46Z</time>
      </trkpt>
      <trkpt lat="44.41483" lon="1.37123">
        <ele>285.61507333333</ele>
        <time>2020-02-03T16:23:55Z</time>
      </trkpt>
      <trkpt lat="44.41483" lon="1.37123">
        <ele>285.61507333333</ele>
        <time>2020-02-03T16:23:56Z</time>
      </trkpt>
    </trkseg>
  </trk>
</gpx>